Observation data for Hackberry on 05/25/2020      Previous  Date  Next       Current Mesonet Observations  Soil Data  Daily Summary Page  Observations in Plain Language
KHA3 250500Z 03018G23KT 17/16 A2988 RMK A01 T01650160  RH  097%=      5-min Rain = 0
KHA3 250501Z 03019KT 17/16 A2988 RMK A01 T01650160  RH  097%=      5-min Rain = 0.01
KHA3 250502Z 03017KT 17/16 A2988 RMK A01 T01650159  RH  097%=      5-min Rain = 0
KHA3 250503Z 03018G23KT 16/16 A2988 RMK A01 T01640159  RH  097%=      5-min Rain = 0
KHA3 250504Z 03023KT 16/16 A2987 RMK A01 T01640159  RH  097%=      5-min Rain = 0
KHA3 250505Z 03020KT 16/16 A2987 RMK A01 T01640159  RH  097%=      5-min Rain = 0.01
KHA3 250506Z 03021KT 16/16 A2987 RMK A01 T01640159  RH  097%=      5-min Rain = 0
KHA3 250507Z 03017G22KT 16/16 A2987 RMK A01 T01640159  RH  097%=      5-min Rain = 0
KHA3 250508Z 03020KT 16/16 A2987 RMK A01 T01640159  RH  097%=      5-min Rain = 0
KHA3 250509Z 03019KT 16/16 A2987 RMK A01 T01640159  RH  097%=      5-min Rain = 0.01
KHA3 250510Z 03020G26KT 16/16 A2987 RMK A01 T01640159  RH  096%=      5-min Rain = 0
KHA3 250511Z 03017KT 16/16 A2987 RMK A01 T01640158  RH  096%=      5-min Rain = 0
KHA3 250512Z 03017KT 16/16 A2987 RMK A01 T01640159  RH  097%=      5-min Rain = 0
KHA3 250513Z 03017G24KT 16/16 A2987 RMK A01 T01640159  RH  097%=      5-min Rain = 0.01
KHA3 250514Z 03019KT 16/16 A2987 RMK A01 T01640159  RH  097%=      5-min Rain = 0
KHA3 250515Z 03018KT 16/16 A2987 RMK A01 T01640159  RH  097%=      5-min Rain = 0
KHA3 250516Z 03016G21KT 16/16 A2987 RMK A01 T01630159  RH  097%=      5-min Rain = 0
KHA3 250517Z 03019KT 16/16 A2987 RMK A01 T01630159  RH  097%=      5-min Rain = 0.01
KHA3 250518Z 03020KT 16/16 A2987 RMK A01 T01630158  RH  097%=      5-min Rain = 0
KHA3 250519Z 03017G22KT 16/16 A2987 RMK A01 T01630158  RH  097%=      5-min Rain = 0
KHA3 250520Z 04019KT 16/16 A2987 RMK A01 T01630159  RH  097%=      5-min Rain = 0
KHA3 250521Z 04017KT 16/16 A2987 RMK A01 T01630159  RH  097%=      5-min Rain = 0
KHA3 250522Z 04017KT 16/16 A2987 RMK A01 T01630159  RH  097%=      5-min Rain = 0.01
KHA3 250523Z 04018KT 16/16 A2987 RMK A01 T01630159  RH  097%=      5-min Rain = 0
KHA3 250524Z 04016G21KT 16/16 A2987 RMK A01 T01630159  RH  098%=      5-min Rain = 0
KHA3 250525Z 04015G20KT 16/16 A2988 RMK A01 T01630159  RH  098%=      5-min Rain = 0
KHA3 250526Z 04019KT 16/16 A2987 RMK A01 T01630160  RH  098%=      5-min Rain = 0
KHA3 250527Z 04017KT 16/16 A2987 RMK A01 T01630160  RH  098%=      5-min Rain = 0
KHA3 250528Z 04016KT 16/16 A2987 RMK A01 T01630160  RH  098%=      5-min Rain = 0.01
KHA3 250529Z 04017KT 16/16 A2987 RMK A01 T01620160  RH  098%=      5-min Rain = 0
KHA3 250530Z 04016G22KT 16/16 A2987 RMK A01 T01630160  RH  099%=      5-min Rain = 0
KHA3 250531Z 04017KT 16/16 A2987 RMK A01 T01630161  RH  099%=      5-min Rain = 0
KHA3 250532Z 04016KT 16/16 A2987 RMK A01 T01620160  RH  099%=      5-min Rain = 0
KHA3 250533Z 04017KT 16/16 A2986 RMK A01 T01620160  RH  099%=      5-min Rain = 0.01
KHA3 250534Z 04022KT 16/16 A2986 RMK A01 T01610159  RH  099%=      5-min Rain = 0
KHA3 250535Z 04022KT 16/16 A2986 RMK A01 T01620159  RH  098%=      5-min Rain = 0
KHA3 250536Z 04021KT 16/16 A2985 RMK A01 T01610158  RH  098%=      5-min Rain = 0
KHA3 250537Z 04020G25KT 16/16 A2985 RMK A01 T01610158  RH  098%=      5-min Rain = 0
KHA3 250538Z 04024KT 16/16 A2984 RMK A01 T01610158  RH  098%=      5-min Rain = 0
KHA3 250539Z 04021KT 16/16 A2984 RMK A01 T01610158  RH  098%=      5-min Rain = 0
KHA3 250540Z 04023KT 16/16 A2984 RMK A01 T01610158  RH  098%=      5-min Rain = 0
KHA3 250541Z 04024KT 16/16 A2983 RMK A01 T01610158  RH  098%=      5-min Rain = 0
KHA3 250542Z 04024KT 16/16 A2982 RMK A01 T01610158  RH  098%=      5-min Rain = 0
KHA3 250543Z 05022KT 16/16 A2981 RMK A01 T01610158  RH  098%=      5-min Rain = 0
KHA3 250544Z 05028KT 16/16 A298 RMK A01 T01600158  RH  098%=      5-min Rain = 0
KHA3 250545Z 05023KT 16/16 A298 RMK A01 T01600158  RH  098%=      5-min Rain = 0
KHA3 250546Z 05021G26KT 16/16 A2979 RMK A01 T01590157  RH  098%=      5-min Rain = 0
KHA3 250547Z 05021G27KT 16/16 A2979 RMK A01 T01580155  RH  098%=      5-min Rain = 0
KHA3 250548Z 06023G28KT 16/16 A2978 RMK A01 T01580156  RH  098%=      5-min Rain = 0
KHA3 250549Z 06027KT 16/15 A2978 RMK A01 T01580154  RH  098%=      5-min Rain = 0.01
KHA3 250550Z 06024G32KT 16/15 A2978 RMK A01 T01560152  RH  097%=      5-min Rain = 0
KHA3 250551Z 06023G31KT 16/15 A2978 RMK A01 T01550151  RH  097%=      5-min Rain = 0
KHA3 250552Z 06026G33KT 16/15 A2978 RMK A01 T01550151  RH  097%=      5-min Rain = 0
KHA3 250553Z 06024G31KT 16/15 A2978 RMK A01 T01550150  RH  097%=      5-min Rain = 0
KHA3 250554Z 06027KT 15/15 A2978 RMK A01 T01540149  RH  097%=      5-min Rain = 0
KHA3 250555Z 05026G31KT 15/15 A2979 RMK A01 T01530148  RH  096%=      5-min Rain = 0
KHA3 250556Z 05025G33KT 15/15 A2979 RMK A01 T01530147  RH  096%=      5-min Rain = 0
KHA3 250557Z 05024G29KT 15/15 A298 RMK A01 T01530147  RH  096%=      5-min Rain = 0
KHA3 250558Z 05023KT 15/15 A298 RMK A01 T01520147  RH  097%=      5-min Rain = 0
KHA3 250559Z 05021G26KT 15/15 A298 RMK A01 T01520147  RH  097%=      5-min Rain = 0
KHA3 250600Z 06022KT 15/15 A298 RMK A01 T01520147  RH  097%=      5-min Rain = 0
KHA3 250601Z 06022KT 15/15 A298 RMK A01 T01520147  RH  097%=      5-min Rain = 0
KHA3 250602Z 07025G30KT 15/15 A2981 RMK A01 T01520147  RH  097%=      5-min Rain = 0
KHA3 250603Z 06024KT 15/15 A2981 RMK A01 T01520147  RH  097%=      5-min Rain = 0
KHA3 250604Z 06026KT 15/15 A2981 RMK A01 T01520147  RH  097%=      5-min Rain = 0
KHA3 250605Z 06021KT 15/15 A2981 RMK A01 T01520147  RH  097%=      5-min Rain = 0
KHA3 250606Z 06020KT 15/15 A2981 RMK A01 T01520147  RH  097%=      5-min Rain = 0
KHA3 250607Z 06022KT 15/15 A2982 RMK A01 T01520147  RH  097%=      5-min Rain = 0
KHA3 250608Z 06022KT 15/15 A2981 RMK A01 T01520147  RH  097%=      5-min Rain = 0
KHA3 250609Z 06016KT 15/15 A2982 RMK A01 T01520147  RH  097%=      5-min Rain = 0
KHA3 250610Z 06018G23KT 15/15 A2982 RMK A01 T01520147  RH  097%=      5-min Rain = 0
KHA3 250611Z 07018G23KT 15/15 A2982 RMK A01 T01520147  RH  097%=      5-min Rain = 0
KHA3 250612Z 07020G25KT 15/15 A2982 RMK A01 T01520147  RH  097%=      5-min Rain = 0
KHA3 250613Z 07019G27KT 15/15 A2982 RMK A01 T01520147  RH  097%=      5-min Rain = 0
KHA3 250614Z 06022KT 15/15 A2981 RMK A01 T01520147  RH  096%=      5-min Rain = 0
KHA3 250615Z 07021G26KT 15/15 A2982 RMK A01 T01520146  RH  096%=      5-min Rain = 0
KHA3 250616Z 07018KT 15/15 A2982 RMK A01 T01530147  RH  096%=      5-min Rain = 0
KHA3 250617Z 07019KT 15/15 A2982 RMK A01 T01530147  RH  096%=      5-min Rain = 0
KHA3 250618Z 08020G26KT 15/15 A2981 RMK A01 T01530147  RH  096%=      5-min Rain = 0
KHA3 250619Z 08020KT 15/15 A2981 RMK A01 T01530147  RH  096%=      5-min Rain = 0
KHA3 250620Z 08020KT 15/15 A2981 RMK A01 T01530147  RH  096%=      5-min Rain = 0
KHA3 250621Z 09020KT 15/15 A2981 RMK A01 T01530147  RH  096%=      5-min Rain = 0
KHA3 250622Z 08020G26KT 15/15 A2981 RMK A01 T01520147  RH  097%=      5-min Rain = 0
KHA3 250623Z 08017G22KT 15/15 A2981 RMK A01 T01520147  RH  097%=      5-min Rain = 0
KHA3 250624Z 08014KT 15/15 A2982 RMK A01 T01520147  RH  097%=      5-min Rain = 0
KHA3 250625Z 08015G20KT 15/15 A2982 RMK A01 T01520147  RH  097%=      5-min Rain = 0
KHA3 250626Z 08014KT 15/15 A2983 RMK A01 T01520147  RH  097%=      5-min Rain = 0
KHA3 250627Z 08016G22KT 15/15 A2983 RMK A01 T01520147  RH  097%=      5-min Rain = 0
KHA3 250628Z 07015KT 15/15 A2983 RMK A01 T01520147  RH  097%=      5-min Rain = 0
KHA3 250629Z 08016KT 15/15 A2983 RMK A01 T01520146  RH  096%=      5-min Rain = 0
KHA3 250630Z 07014KT 15/15 A2983 RMK A01 T01530146  RH  096%=      5-min Rain = 0
KHA3 250631Z 08011KT 15/15 A2983 RMK A01 T01530147  RH  096%=      5-min Rain = 0
KHA3 250632Z 07015KT 15/15 A2983 RMK A01 T01530146  RH  096%=      5-min Rain = 0
KHA3 250633Z 07013KT 15/15 A2983 RMK A01 T01530146  RH  095%=      5-min Rain = 0
KHA3 250634Z 07013KT 15/15 A2983 RMK A01 T01540146  RH  095%=      5-min Rain = 0
KHA3 250635Z 05013KT 15/15 A2983 RMK A01 T01530146  RH  095%=      5-min Rain = 0
KHA3 250636Z 05012KT 15/15 A2983 RMK A01 T01540146  RH  095%=      5-min Rain = 0
KHA3 250637Z 05011KT 16/15 A2983 RMK A01 T01550146  RH  094%=      5-min Rain = 0
KHA3 250638Z 06011KT 16/15 A2983 RMK A01 T01550146  RH  094%=      5-min Rain = 0
KHA3 250639Z 06010KT 16/15 A2983 RMK A01 T01550146  RH  094%=      5-min Rain = 0
KHA3 250640Z 07009KT 16/15 A2982 RMK A01 T01550146  RH  094%=      5-min Rain = 0
KHA3 250641Z 08008KT 16/15 A2982 RMK A01 T01550146  RH  094%=      5-min Rain = 0
KHA3 250642Z 07006KT 16/15 A2982 RMK A01 T01550146  RH  095%=      5-min Rain = 0
KHA3 250643Z 06006KT 16/15 A2982 RMK A01 T01550146  RH  095%=      5-min Rain = 0
KHA3 250644Z 05007KT 15/15 A2982 RMK A01 T01540146  RH  095%=      5-min Rain = 0
KHA3 250645Z 03007KT 15/15 A2982 RMK A01 T01540146  RH  095%=      5-min Rain = 0
KHA3 250646Z 02007KT 15/15 A2982 RMK A01 T01540146  RH  095%=      5-min Rain = 0
KHA3 250647Z 02007KT 15/15 A2982 RMK A01 T01540147  RH  095%=      5-min Rain = 0
KHA3 250648Z 01006KT 16/15 A2982 RMK A01 T01550147  RH  095%=      5-min Rain = 0
KHA3 250649Z 02008KT 15/15 A2982 RMK A01 T01540147  RH  095%=      5-min Rain = 0
KHA3 250650Z 01008KT 15/15 A2982 RMK A01 T01540147  RH  095%=      5-min Rain = 0
KHA3 250651Z 02008KT 15/15 A2982 RMK A01 T01540147  RH  095%=      5-min Rain = 0
KHA3 250652Z 02007KT 15/15 A2982 RMK A01 T01540146  RH  095%=      5-min Rain = 0
KHA3 250653Z 03006KT 15/15 A2982 RMK A01 T01540146  RH  095%=      5-min Rain = 0
KHA3 250654Z 02006KT 15/15 A2981 RMK A01 T01540146  RH  095%=      5-min Rain = 0
KHA3 250655Z 02005KT 15/15 A2981 RMK A01 T01540146  RH  095%=      5-min Rain = 0
KHA3 250656Z 01005KT 15/15 A2981 RMK A01 T01540147  RH  095%=      5-min Rain = 0
KHA3 250657Z 36004KT 15/15 A2981 RMK A01 T01540147  RH  095%=      5-min Rain = 0
KHA3 250658Z 35004KT 15/15 A2981 RMK A01 T01540147  RH  096%=      5-min Rain = 0
KHA3 250659Z 35004KT 15/15 A2981 RMK A01 T01540147  RH  096%=      5-min Rain = 0
KHA3 250700Z 36004KT 15/15 A2981 RMK A01 T01540147  RH  096%=      5-min Rain = 0
KHA3 250701Z 35004KT 15/15 A2981 RMK A01 T01530146  RH  095%=      5-min Rain = 0
KHA3 250702Z 34003KT 15/15 A2982 RMK A01 T01540147  RH  095%=      5-min Rain = 0
KHA3 250703Z 35002KT 15/15 A2982 RMK A01 T01540147  RH  095%=      5-min Rain = 0
KHA3 250704Z 00002KT 16/15 A2982 RMK A01 T01550147  RH  095%=      5-min Rain = 0
KHA3 250705Z 01002KT 16/15 A2982 RMK A01 T01550146  RH  095%=      5-min Rain = 0
KHA3 250706Z 01003KT 16/15 A2981 RMK A01 T01550145  RH  094%=      5-min Rain = 0
KHA3 250707Z 03002KT 16/15 A2981 RMK A01 T01550145  RH  094%=      5-min Rain = 0
KHA3 250708Z 04003KT 16/15 A2981 RMK A01 T01550145  RH  094%=      5-min Rain = 0
KHA3 250709Z 06002KT 16/15 A2981 RMK A01 T01560146  RH  094%=      5-min Rain = 0
KHA3 250710Z 06003KT 16/15 A2981 RMK A01 T01560146  RH  094%=      5-min Rain = 0
KHA3 250711Z 06002KT 16/15 A2981 RMK A01 T01560146  RH  094%=      5-min Rain = 0
KHA3 250712Z 04003KT 16/15 A2981 RMK A01 T01560146  RH  094%=      5-min Rain = 0
KHA3 250713Z 05003KT 16/15 A2981 RMK A01 T01560145  RH  094%=      5-min Rain = 0
KHA3 250714Z 05003KT 16/15 A2981 RMK A01 T01560145  RH  093%=      5-min Rain = 0
KHA3 250715Z 06004KT 16/15 A2981 RMK A01 T01560145  RH  093%=      5-min Rain = 0
KHA3 250716Z 06005KT 16/15 A2981 RMK A01 T01560145  RH  093%=      5-min Rain = 0
KHA3 250717Z 06005KT 16/15 A2981 RMK A01 T01560146  RH  093%=      5-min Rain = 0
KHA3 250718Z 06005KT 16/15 A2981 RMK A01 T01570146  RH  094%=      5-min Rain = 0
KHA3 250719Z 05004KT 16/15 A2981 RMK A01 T01560146  RH  094%=      5-min Rain = 0
KHA3 250720Z 05004KT 16/15 A2981 RMK A01 T01560146  RH  094%=      5-min Rain = 0
KHA3 250721Z 06004KT 16/15 A298 RMK A01 T01560146  RH  094%=      5-min Rain = 0
KHA3 250722Z 07005KT 16/15 A298 RMK A01 T01550146  RH  094%=      5-min Rain = 0
KHA3 250723Z 08005KT 16/15 A298 RMK A01 T01550146  RH  094%=      5-min Rain = 0
KHA3 250724Z 07004KT 16/15 A298 RMK A01 T01550146  RH  094%=      5-min Rain = 0
KHA3 250725Z 05004KT 16/15 A298 RMK A01 T01550146  RH  094%=      5-min Rain = 0
KHA3 250726Z 05004KT 16/15 A298 RMK A01 T01550145  RH  094%=      5-min Rain = 0
KHA3 250727Z 06003KT 16/15 A2981 RMK A01 T01550145  RH  094%=      5-min Rain = 0
KHA3 250728Z 07003KT 16/15 A2981 RMK A01 T01550145  RH  094%=      5-min Rain = 0
KHA3 250729Z 07002KT 16/15 A2981 RMK A01 T01550146  RH  094%=      5-min Rain = 0
KHA3 250730Z 05003KT 16/15 A2981 RMK A01 T01550146  RH  094%=      5-min Rain = 0
KHA3 250731Z 04003KT 16/15 A2981 RMK A01 T01550146  RH  095%=      5-min Rain = 0
KHA3 250732Z 03003KT 16/15 A2981 RMK A01 T01550146  RH  095%=      5-min Rain = 0
KHA3 250733Z 03003KT 16/15 A2981 RMK A01 T01550147  RH  095%=      5-min Rain = 0
KHA3 250734Z 02003KT 16/15 A2981 RMK A01 T01550147  RH  095%=      5-min Rain = 0
KHA3 250735Z 01003KT 16/15 A2981 RMK A01 T01550147  RH  095%=      5-min Rain = 0
KHA3 250736Z 01003KT 16/15 A298 RMK A01 T01550147  RH  095%=      5-min Rain = 0
KHA3 250737Z 02002KT 16/15 A298 RMK A01 T01550147  RH  095%=      5-min Rain = 0
KHA3 250738Z 03002KT 16/15 A298 RMK A01 T01550146  RH  095%=      5-min Rain = 0
KHA3 250739Z 04001KT 16/15 A298 RMK A01 T01550147  RH  095%=      5-min Rain = 0
KHA3 250740Z 00000KT 16/15 A2979 RMK A01 T01550146  RH  094%=      5-min Rain = 0
KHA3 250741Z 17001KT 16/15 A2979 RMK A01 T01550146  RH  094%=      5-min Rain = 0
KHA3 250742Z 17001KT 16/15 A2979 RMK A01 T01550146  RH  094%=      5-min Rain = 0
KHA3 250743Z 17002KT 16/15 A2979 RMK A01 T01560146  RH  094%=      5-min Rain = 0
KHA3 250744Z 17002KT 16/15 A2979 RMK A01 T01570148  RH  095%=      5-min Rain = 0
KHA3 250745Z 17002KT 16/15 A2979 RMK A01 T01570148  RH  095%=      5-min Rain = 0
KHA3 250746Z 19002KT 16/15 A2979 RMK A01 T01570149  RH  095%=      5-min Rain = 0
KHA3 250747Z 22002KT 16/15 A2979 RMK A01 T01570149  RH  095%=      5-min Rain = 0
KHA3 250748Z 23001KT 16/15 A2979 RMK A01 T01570149  RH  095%=      5-min Rain = 0
KHA3 250749Z 26001KT 16/15 A2978 RMK A01 T01570148  RH  095%=      5-min Rain = 0
KHA3 250750Z 27001KT 16/15 A2978 RMK A01 T01570146  RH  093%=      5-min Rain = 0
KHA3 250751Z 27002KT 16/15 A2978 RMK A01 T01570146  RH  094%=      5-min Rain = 0
KHA3 250752Z 28001KT 16/15 A2978 RMK A01 T01570147  RH  094%=      5-min Rain = 0
KHA3 250753Z 29001KT 16/15 A2978 RMK A01 T01580148  RH  094%=      5-min Rain = 0
KHA3 250754Z 31001KT 16/15 A2978 RMK A01 T01580148  RH  094%=      5-min Rain = 0
KHA3 250755Z 31001KT 16/15 A2978 RMK A01 T01580147  RH  093%=      5-min Rain = 0
KHA3 250756Z 32002KT 16/15 A2977 RMK A01 T01570146  RH  093%=      5-min Rain = 0
KHA3 250757Z 31002KT 16/15 A2977 RMK A01 T01580147  RH  093%=      5-min Rain = 0
KHA3 250758Z 29002KT 16/15 A2977 RMK A01 T01580147  RH  093%=      5-min Rain = 0
KHA3 250759Z 28002KT 16/15 A2977 RMK A01 T01580147  RH  093%=      5-min Rain = 0
KHA3 250800Z 29002KT 16/15 A2977 RMK A01 T01580148  RH  093%=      5-min Rain = 0
KHA3 250801Z 30002KT 16/15 A2977 RMK A01 T01580146  RH  093%=      5-min Rain = 0
KHA3 250802Z 30002KT 16/15 A2978 RMK A01 T01580147  RH  093%=      5-min Rain = 0
KHA3 250803Z 30003KT 16/15 A2978 RMK A01 T01580147  RH  093%=      5-min Rain = 0
KHA3 250804Z 30004KT 16/15 A2978 RMK A01 T01580147  RH  093%=      5-min Rain = 0
KHA3 250805Z 30004KT 16/15 A2978 RMK A01 T01580149  RH  094%=      5-min Rain = 0
KHA3 250806Z 29004KT 16/15 A2978 RMK A01 T01590149  RH  094%=      5-min Rain = 0
KHA3 250807Z 30004KT 16/15 A2978 RMK A01 T01590150  RH  094%=      5-min Rain = 0
KHA3 250808Z 29003KT 16/15 A2978 RMK A01 T01590149  RH  094%=      5-min Rain = 0
KHA3 250809Z 29003KT 16/15 A2978 RMK A01 T01590149  RH  094%=      5-min Rain = 0
KHA3 250810Z 29003KT 16/15 A2978 RMK A01 T01590149  RH  094%=      5-min Rain = 0
KHA3 250811Z 29003KT 16/15 A2977 RMK A01 T01580148  RH  093%=      5-min Rain = 0
KHA3 250812Z 30003KT 16/15 A2977 RMK A01 T01580148  RH  094%=      5-min Rain = 0
KHA3 250813Z 29003KT 16/15 A2977 RMK A01 T01590150  RH  095%=      5-min Rain = 0
KHA3 250814Z 28003KT 16/15 A2977 RMK A01 T01590150  RH  095%=      5-min Rain = 0
KHA3 250815Z 28002KT 16/15 A2977 RMK A01 T01590150  RH  095%=      5-min Rain = 0
KHA3 250816Z 28002KT 16/15 A2977 RMK A01 T01590150  RH  094%=      5-min Rain = 0
KHA3 250817Z 28002KT 16/15 A2977 RMK A01 T01590150  RH  095%=      5-min Rain = 0
KHA3 250818Z 28002KT 16/15 A2977 RMK A01 T01590150  RH  095%=      5-min Rain = 0
KHA3 250819Z 28001KT 16/15 A2977 RMK A01 T01580150  RH  095%=      5-min Rain = 0
KHA3 250820Z 28001KT 16/15 A2977 RMK A01 T01590149  RH  094%=      5-min Rain = 0
KHA3 250821Z 26001KT 16/15 A2976 RMK A01 T01590149  RH  094%=      5-min Rain = 0
KHA3 250822Z 24002KT 16/15 A2976 RMK A01 T01580148  RH  094%=      5-min Rain = 0
KHA3 250823Z 25002KT 16/15 A2976 RMK A01 T01590148  RH  093%=      5-min Rain = 0
KHA3 250824Z 24003KT 16/15 A2977 RMK A01 T01590149  RH  093%=      5-min Rain = 0
KHA3 250825Z 25003KT 16/15 A2977 RMK A01 T01600149  RH  093%=      5-min Rain = 0
KHA3 250826Z 25003KT 16/15 A2977 RMK A01 T01600148  RH  093%=      5-min Rain = 0
KHA3 250827Z 25002KT 16/15 A2977 RMK A01 T01600148  RH  092%=      5-min Rain = 0
KHA3 250828Z 25002KT 16/15 A2977 RMK A01 T01600146  RH  091%=      5-min Rain = 0
KHA3 250829Z 25002KT 16/15 A2977 RMK A01 T01600146  RH  091%=      5-min Rain = 0
KHA3 250830Z 24002KT 16/15 A2977 RMK A01 T01610148  RH  092%=      5-min Rain = 0
KHA3 250831Z 24002KT 16/15 A2978 RMK A01 T01610149  RH  093%=      5-min Rain = 0
KHA3 250832Z 25002KT 16/15 A2978 RMK A01 T01610151  RH  093%=      5-min Rain = 0
KHA3 250833Z 25002KT 16/15 A2978 RMK A01 T01610151  RH  094%=      5-min Rain = 0
KHA3 250834Z 26002KT 16/15 A2978 RMK A01 T01610151  RH  094%=      5-min Rain = 0
KHA3 250835Z 27001KT 16/15 A2978 RMK A01 T01610151  RH  094%=      5-min Rain = 0
KHA3 250836Z 28000KT 16/15 A2978 RMK A01 T01600150  RH  093%=      5-min Rain = 0
KHA3 250837Z 00000KT 16/15 A2978 RMK A01 T01600150  RH  094%=      5-min Rain = 0
KHA3 250838Z 00000KT 16/15 A2978 RMK A01 T01600151  RH  094%=      5-min Rain = 0
KHA3 250839Z 23001KT 16/15 A2978 RMK A01 T01600151  RH  094%=      5-min Rain = 0
KHA3 250840Z 24002KT 16/15 A2978 RMK A01 T01600150  RH  094%=      5-min Rain = 0
KHA3 250841Z 25002KT 16/15 A2978 RMK A01 T01600150  RH  094%=      5-min Rain = 0
KHA3 250842Z 26002KT 16/15 A2978 RMK A01 T01600150  RH  094%=      5-min Rain = 0
KHA3 250843Z 27002KT 16/15 A2978 RMK A01 T01600151  RH  094%=      5-min Rain = 0
KHA3 250844Z 26002KT 16/15 A2979 RMK A01 T01600152  RH  095%=      5-min Rain = 0
KHA3 250845Z 25002KT 16/15 A2979 RMK A01 T01600152  RH  095%=      5-min Rain = 0
KHA3 250846Z 23002KT 16/15 A2979 RMK A01 T01600151  RH  094%=      5-min Rain = 0
KHA3 250847Z 23002KT 16/15 A2979 RMK A01 T01600151  RH  094%=      5-min Rain = 0
KHA3 250848Z 22003KT 16/15 A2979 RMK A01 T01600152  RH  095%=      5-min Rain = 0
KHA3 250849Z 22003KT 16/15 A2979 RMK A01 T01600152  RH  095%=      5-min Rain = 0
KHA3 250850Z 22003KT 16/15 A2979 RMK A01 T01600152  RH  095%=      5-min Rain = 0
KHA3 250851Z 21003KT 16/15 A2979 RMK A01 T01600152  RH  095%=      5-min Rain = 0
KHA3 250852Z 20003KT 16/15 A2979 RMK A01 T01600152  RH  095%=      5-min Rain = 0
KHA3 250853Z 20003KT 16/15 A2978 RMK A01 T01590152  RH  095%=      5-min Rain = 0
KHA3 250854Z 20003KT 16/15 A2978 RMK A01 T01590152  RH  095%=      5-min Rain = 0
KHA3 250855Z 20003KT 16/15 A2978 RMK A01 T01590153  RH  096%=      5-min Rain = 0
KHA3 250856Z 20003KT 16/15 A2978 RMK A01 T01590152  RH  096%=      5-min Rain = 0
KHA3 250857Z 21003KT 16/15 A2978 RMK A01 T01580152  RH  096%=      5-min Rain = 0
KHA3 250858Z 21003KT 16/15 A2978 RMK A01 T01580152  RH  096%=      5-min Rain = 0
KHA3 250859Z 21004KT 16/15 A2978 RMK A01 T01580152  RH  097%=      5-min Rain = 0
KHA3 250900Z 21004KT 16/15 A2978 RMK A01 T01580153  RH  097%=      5-min Rain = 0
KHA3 250901Z 22005KT 16/15 A2978 RMK A01 T01580153  RH  097%=      5-min Rain = 0
KHA3 250902Z 22005KT 16/15 A2979 RMK A01 T01580153  RH  097%=      5-min Rain = 0
KHA3 250903Z 22005KT 16/15 A2979 RMK A01 T01570153  RH  097%=      5-min Rain = 0
KHA3 250904Z 22004KT 16/15 A2979 RMK A01 T01580153  RH  097%=      5-min Rain = 0
KHA3 250905Z 22004KT 16/15 A2979 RMK A01 T01580153  RH  097%=      5-min Rain = 0
KHA3 250906Z 23004KT 16/15 A2979 RMK A01 T01570152  RH  097%=      5-min Rain = 0
KHA3 250907Z 24003KT 16/15 A2979 RMK A01 T01570152  RH  097%=      5-min Rain = 0
KHA3 250908Z 24004KT 16/15 A2979 RMK A01 T01570151  RH  096%=      5-min Rain = 0
KHA3 250909Z 24004KT 16/15 A2979 RMK A01 T01570151  RH  096%=      5-min Rain = 0
KHA3 250910Z 24005KT 16/15 A2979 RMK A01 T01570151  RH  096%=      5-min Rain = 0
KHA3 250911Z 24005KT 16/15 A2979 RMK A01 T01580151  RH  096%=      5-min Rain = 0
KHA3 250912Z 25005KT 16/15 A2979 RMK A01 T01580152  RH  096%=      5-min Rain = 0
KHA3 250913Z 25006KT 16/15 A2979 RMK A01 T01580152  RH  096%=      5-min Rain = 0
KHA3 250914Z 25005KT 16/15 A2979 RMK A01 T01580152  RH  096%=      5-min Rain = 0
KHA3 250915Z 26005KT 16/15 A2979 RMK A01 T01580152  RH  096%=      5-min Rain = 0
KHA3 250916Z 26006KT 16/15 A2979 RMK A01 T01580152  RH  096%=      5-min Rain = 0
KHA3 250917Z 26006KT 16/15 A2979 RMK A01 T01580152  RH  096%=      5-min Rain = 0
KHA3 250918Z 25006KT 16/15 A2979 RMK A01 T01580152  RH  096%=      5-min Rain = 0
KHA3 250919Z 25005KT 16/15 A2979 RMK A01 T01580152  RH  096%=      5-min Rain = 0
KHA3 250920Z 24005KT 16/15 A2979 RMK A01 T01580152  RH  096%=      5-min Rain = 0
KHA3 250921Z 23005KT 16/15 A2979 RMK A01 T01580152  RH  096%=      5-min Rain = 0
KHA3 250922Z 22004KT 16/15 A2979 RMK A01 T01580152  RH  096%=      5-min Rain = 0
KHA3 250923Z 20004KT 16/15 A2979 RMK A01 T01580152  RH  096%=      5-min Rain = 0
KHA3 250924Z 18004KT 16/15 A2979 RMK A01 T01580152  RH  096%=      5-min Rain = 0
KHA3 250925Z 19004KT 16/15 A2979 RMK A01 T01580152  RH  096%=      5-min Rain = 0
KHA3 250926Z 21005KT 16/15 A2979 RMK A01 T01570151  RH  096%=      5-min Rain = 0
KHA3 250927Z 21005KT 16/15 A2979 RMK A01 T01570151  RH  096%=      5-min Rain = 0
KHA3 250928Z 22005KT 16/15 A2979 RMK A01 T01570151  RH  096%=      5-min Rain = 0
KHA3 250929Z 22006KT 16/15 A2979 RMK A01 T01570151  RH  097%=      5-min Rain = 0
KHA3 250930Z 22005KT 16/15 A2979 RMK A01 T01570151  RH  097%=      5-min Rain = 0
KHA3 250931Z 22006KT 16/15 A2979 RMK A01 T01560151  RH  097%=      5-min Rain = 0
KHA3 250932Z 22006KT 16/15 A2979 RMK A01 T01560151  RH  097%=      5-min Rain = 0
KHA3 250933Z 22006KT 16/15 A2979 RMK A01 T01560151  RH  097%=      5-min Rain = 0
KHA3 250934Z 23006KT 16/15 A2979 RMK A01 T01560151  RH  097%=      5-min Rain = 0
KHA3 250935Z 23006KT 16/15 A2979 RMK A01 T01570152  RH  097%=      5-min Rain = 0
KHA3 250936Z 23006KT 16/15 A2979 RMK A01 T01570152  RH  097%=      5-min Rain = 0
KHA3 250937Z 23007KT 16/15 A2979 RMK A01 T01570153  RH  097%=      5-min Rain = 0
KHA3 250938Z 23007KT 16/15 A2979 RMK A01 T01570152  RH  097%=      5-min Rain = 0
KHA3 250939Z 23007KT 16/15 A2979 RMK A01 T01570152  RH  097%=      5-min Rain = 0
KHA3 250940Z 24007KT 16/15 A2979 RMK A01 T01570152  RH  097%=      5-min Rain = 0
KHA3 250941Z 24008KT 16/15 A298 RMK A01 T01570152  RH  097%=      5-min Rain = 0
KHA3 250942Z 23007KT 16/15 A298 RMK A01 T01570152  RH  097%=      5-min Rain = 0
KHA3 250943Z 24007KT 16/15 A298 RMK A01 T01570152  RH  097%=      5-min Rain = 0
KHA3 250944Z 24008KT 16/15 A298 RMK A01 T01570152  RH  097%=      5-min Rain = 0
KHA3 250945Z 25007KT 16/15 A298 RMK A01 T01570152  RH  097%=      5-min Rain = 0
KHA3 250946Z 25007KT 16/15 A2979 RMK A01 T01570153  RH  097%=      5-min Rain = 0
KHA3 250947Z 24008KT 16/15 A2979 RMK A01 T01570153  RH  097%=      5-min Rain = 0
KHA3 250948Z 24008KT 16/15 A2979 RMK A01 T01570153  RH  097%=      5-min Rain = 0
KHA3 250949Z 24008KT 16/15 A2979 RMK A01 T01570153  RH  097%=      5-min Rain = 0
KHA3 250950Z 25008KT 16/15 A298 RMK A01 T01570153  RH  097%=      5-min Rain = 0
KHA3 250951Z 25008KT 16/15 A298 RMK A01 T01570153  RH  097%=      5-min Rain = 0
KHA3 250952Z 26008KT 16/15 A298 RMK A01 T01580154  RH  097%=      5-min Rain = 0
KHA3 250953Z 26008KT 16/15 A2979 RMK A01 T01580154  RH  097%=      5-min Rain = 0
KHA3 250954Z 27008KT 16/15 A2979 RMK A01 T01580153  RH  097%=      5-min Rain = 0
KHA3 250955Z 27008KT 16/15 A2979 RMK A01 T01580153  RH  097%=      5-min Rain = 0
KHA3 250956Z 26009KT 16/15 A2979 RMK A01 T01580153  RH  097%=      5-min Rain = 0
KHA3 250957Z 25009KT 16/15 A2979 RMK A01 T01580153  RH  097%=      5-min Rain = 0
KHA3 250958Z 25008KT 16/15 A2979 RMK A01 T01590154  RH  097%=      5-min Rain = 0
KHA3 250959Z 25008KT 16/15 A2979 RMK A01 T01590154  RH  097%=      5-min Rain = 0
KHA3 251000Z 25009KT 16/15 A2979 RMK A01 T01590154  RH  097%=      5-min Rain = 0
KHA3 251001Z 25008KT 16/15 A2979 RMK A01 T01590154  RH  097%=      5-min Rain = 0
KHA3 251002Z 25009KT 16/16 A2979 RMK A01 T01600155  RH  097%=      5-min Rain = 0
KHA3 251003Z 26009KT 16/15 A2979 RMK A01 T01600154  RH  097%=      5-min Rain = 0
KHA3 251004Z 26009KT 16/15 A2979 RMK A01 T01590154  RH  097%=      5-min Rain = 0
KHA3 251005Z 26008KT 16/15 A2979 RMK A01 T01600154  RH  097%=      5-min Rain = 0
KHA3 251006Z 25009KT 16/15 A2979 RMK A01 T01600154  RH  096%=      5-min Rain = 0
KHA3 251007Z 24009KT 16/15 A2979 RMK A01 T01590154  RH  097%=      5-min Rain = 0
KHA3 251008Z 25009KT 16/15 A2979 RMK A01 T01600154  RH  096%=      5-min Rain = 0
KHA3 251009Z 25008KT 16/15 A2979 RMK A01 T01590154  RH  096%=      5-min Rain = 0
KHA3 251010Z 25009KT 16/15 A2979 RMK A01 T01600154  RH  096%=      5-min Rain = 0
KHA3 251011Z 25008KT 16/16 A2979 RMK A01 T01600155  RH  097%=      5-min Rain = 0
KHA3 251012Z 25009KT 16/16 A2979 RMK A01 T01600155  RH  097%=      5-min Rain = 0
KHA3 251013Z 25009KT 16/15 A2979 RMK A01 T01600154  RH  096%=      5-min Rain = 0
KHA3 251014Z 26009KT 16/15 A2979 RMK A01 T01600154  RH  096%=      5-min Rain = 0
KHA3 251015Z 25009KT 16/15 A2979 RMK A01 T01600154  RH  096%=      5-min Rain = 0
KHA3 251016Z 25010KT 16/15 A2979 RMK A01 T01600154  RH  096%=      5-min Rain = 0
KHA3 251017Z 25009KT 16/15 A2979 RMK A01 T01600154  RH  096%=      5-min Rain = 0
KHA3 251018Z 25010KT 16/15 A2979 RMK A01 T01600153  RH  096%=      5-min Rain = 0
KHA3 251019Z 25009KT 16/15 A2979 RMK A01 T01600153  RH  096%=      5-min Rain = 0
KHA3 251020Z 25010KT 16/15 A2979 RMK A01 T01600153  RH  096%=      5-min Rain = 0
KHA3 251021Z 25011KT 16/15 A2979 RMK A01 T01600153  RH  096%=      5-min Rain = 0
KHA3 251022Z 25011KT 16/15 A2979 RMK A01 T01600152  RH  095%=      5-min Rain = 0
KHA3 251023Z 26010KT 16/15 A2979 RMK A01 T01600152  RH  095%=      5-min Rain = 0
KHA3 251024Z 26010KT 16/15 A2979 RMK A01 T01600153  RH  095%=      5-min Rain = 0
KHA3 251025Z 26010KT 16/15 A2979 RMK A01 T01600153  RH  095%=      5-min Rain = 0
KHA3 251026Z 26008KT 16/15 A2979 RMK A01 T01600152  RH  095%=      5-min Rain = 0
KHA3 251027Z 25009KT 16/15 A2979 RMK A01 T01600152  RH  095%=      5-min Rain = 0
KHA3 251028Z 26008KT 16/15 A2979 RMK A01 T01600152  RH  095%=      5-min Rain = 0
KHA3 251029Z 26008KT 16/15 A2979 RMK A01 T01600152  RH  095%=      5-min Rain = 0
KHA3 251030Z 27007KT 16/15 A2979 RMK A01 T01600152  RH  095%=      5-min Rain = 0
KHA3 251031Z 27008KT 16/15 A2979 RMK A01 T01600152  RH  095%=      5-min Rain = 0
KHA3 251032Z 28008KT 16/15 A298 RMK A01 T01600151  RH  095%=      5-min Rain = 0
KHA3 251033Z 28008KT 16/15 A298 RMK A01 T01600151  RH  095%=      5-min Rain = 0
KHA3 251034Z 29009KT 16/15 A298 RMK A01 T01600152  RH  095%=      5-min Rain = 0
KHA3 251035Z 28009KT 16/15 A298 RMK A01 T01600151  RH  095%=      5-min Rain = 0
KHA3 251036Z 28010KT 16/15 A298 RMK A01 T01600151  RH  095%=      5-min Rain = 0
KHA3 251037Z 28009KT 16/15 A298 RMK A01 T01600151  RH  095%=      5-min Rain = 0
KHA3 251038Z 29009KT 16/15 A298 RMK A01 T01600151  RH  094%=      5-min Rain = 0
KHA3 251039Z 29008KT 16/15 A298 RMK A01 T01600151  RH  094%=      5-min Rain = 0
KHA3 251040Z 30008KT 16/15 A298 RMK A01 T01600151  RH  094%=      5-min Rain = 0
KHA3 251041Z 30008KT 16/15 A298 RMK A01 T01600151  RH  094%=      5-min Rain = 0
KHA3 251042Z 29008KT 16/15 A2981 RMK A01 T01600151  RH  094%=      5-min Rain = 0
KHA3 251043Z 29008KT 16/15 A2981 RMK A01 T01600151  RH  095%=      5-min Rain = 0
KHA3 251044Z 29008KT 16/15 A2981 RMK A01 T01600151  RH  094%=      5-min Rain = 0
KHA3 251045Z 29007KT 16/15 A2981 RMK A01 T01600151  RH  094%=      5-min Rain = 0
KHA3 251046Z 29008KT 16/15 A2981 RMK A01 T01600151  RH  094%=      5-min Rain = 0
KHA3 251047Z 30008KT 16/15 A2981 RMK A01 T01600151  RH  095%=      5-min Rain = 0
KHA3 251048Z 30008KT 16/15 A2981 RMK A01 T01600151  RH  095%=      5-min Rain = 0
KHA3 251049Z 30008KT 16/15 A2981 RMK A01 T01590151  RH  095%=      5-min Rain = 0
KHA3 251050Z 30008KT 16/15 A2981 RMK A01 T01590151  RH  095%=      5-min Rain = 0
KHA3 251051Z 30008KT 16/15 A2981 RMK A01 T01590151  RH  095%=      5-min Rain = 0
KHA3 251052Z 30008KT 16/15 A2981 RMK A01 T01590151  RH  095%=      5-min Rain = 0
KHA3 251053Z 30008KT 16/15 A2982 RMK A01 T01600151  RH  095%=      5-min Rain = 0
KHA3 251054Z 30008KT 16/15 A2982 RMK A01 T01590150  RH  094%=      5-min Rain = 0
KHA3 251055Z 30006KT 16/15 A2982 RMK A01 T01600151  RH  094%=      5-min Rain = 0
KHA3 251056Z 30007KT 16/15 A2982 RMK A01 T01600150  RH  094%=      5-min Rain = 0
KHA3 251057Z 30007KT 16/15 A2982 RMK A01 T01600150  RH  094%=      5-min Rain = 0
KHA3 251058Z 30006KT 16/15 A2982 RMK A01 T01600149  RH  093%=      5-min Rain = 0
KHA3 251059Z 31006KT 16/15 A2982 RMK A01 T01600149  RH  093%=      5-min Rain = 0
KHA3 251100Z 31006KT 16/15 A2983 RMK A01 T01600148  RH  093%=      5-min Rain = 0
KHA3 251101Z 31006KT 16/15 A2983 RMK A01 T01600148  RH  093%=      5-min Rain = 0
KHA3 251102Z 31005KT 16/15 A2983 RMK A01 T01600149  RH  093%=      5-min Rain = 0
KHA3 251103Z 31005KT 16/15 A2983 RMK A01 T01610149  RH  093%=      5-min Rain = 0
KHA3 251104Z 30005KT 16/15 A2983 RMK A01 T01600149  RH  093%=      5-min Rain = 0
KHA3 251105Z 31006KT 16/15 A2983 RMK A01 T01600149  RH  093%=      5-min Rain = 0
KHA3 251106Z 30008KT 16/15 A2983 RMK A01 T01600149  RH  093%=      5-min Rain = 0
KHA3 251107Z 30007KT 16/15 A2983 RMK A01 T01600149  RH  093%=      5-min Rain = 0
KHA3 251108Z 29008KT 16/15 A2983 RMK A01 T01600150  RH  094%=      5-min Rain = 0
KHA3 251109Z 30010KT 16/15 A2983 RMK A01 T01600150  RH  094%=      5-min Rain = 0
KHA3 251110Z 30009KT 16/15 A2983 RMK A01 T01600149  RH  093%=      5-min Rain = 0
KHA3 251111Z 30009KT 16/15 A2983 RMK A01 T01600150  RH  094%=      5-min Rain = 0
KHA3 251112Z 30009KT 16/15 A2983 RMK A01 T01600149  RH  093%=      5-min Rain = 0
KHA3 251113Z 30008KT 16/15 A2983 RMK A01 T01600149  RH  093%=      5-min Rain = 0
KHA3 251114Z 31006KT 16/15 A2983 RMK A01 T01600149  RH  093%=      5-min Rain = 0
KHA3 251115Z 31008KT 16/15 A2983 RMK A01 T01600149  RH  093%=      5-min Rain = 0
KHA3 251116Z 32007KT 16/15 A2984 RMK A01 T01600148  RH  093%=      5-min Rain = 0
KHA3 251117Z 32007KT 16/15 A2984 RMK A01 T01600148  RH  093%=      5-min Rain = 0
KHA3 251118Z 33006KT 16/15 A2984 RMK A01 T01600148  RH  093%=      5-min Rain = 0
KHA3 251119Z 33007KT 16/15 A2984 RMK A01 T01600148  RH  093%=      5-min Rain = 0
KHA3 251120Z 34006KT 16/15 A2984 RMK A01 T01600148  RH  093%=      5-min Rain = 0
KHA3 251121Z 34006KT 16/15 A2985 RMK A01 T01600149  RH  093%=      5-min Rain = 0
KHA3 251122Z 34007KT 16/15 A2985 RMK A01 T01600149  RH  093%=      5-min Rain = 0
KHA3 251123Z 35006KT 16/15 A2985 RMK A01 T01600149  RH  093%=      5-min Rain = 0
KHA3 251124Z 35005KT 16/15 A2985 RMK A01 T01600149  RH  093%=      5-min Rain = 0
KHA3 251125Z 35006KT 16/15 A2985 RMK A01 T01590149  RH  094%=      5-min Rain = 0
KHA3 251126Z 35006KT 16/15 A2986 RMK A01 T01600149  RH  094%=      5-min Rain = 0
KHA3 251127Z 35008KT 16/15 A2986 RMK A01 T01590148  RH  093%=      5-min Rain = 0
KHA3 251128Z 35007KT 16/15 A2986 RMK A01 T01600148  RH  093%=      5-min Rain = 0
KHA3 251129Z 35007KT 16/15 A2986 RMK A01 T01600147  RH  092%=      5-min Rain = 0
KHA3 251130Z 34007KT 16/15 A2986 RMK A01 T01600148  RH  092%=      5-min Rain = 0
KHA3 251131Z 35007KT 16/15 A2986 RMK A01 T01600148  RH  093%=      5-min Rain = 0
KHA3 251132Z 35006KT 16/15 A2986 RMK A01 T01600149  RH  093%=      5-min Rain = 0
KHA3 251133Z 35007KT 16/15 A2987 RMK A01 T01600149  RH  093%=      5-min Rain = 0
KHA3 251134Z 35007KT 16/15 A2987 RMK A01 T01600149  RH  093%=      5-min Rain = 0
KHA3 251135Z 35008KT 16/15 A2987 RMK A01 T01600149  RH  093%=      5-min Rain = 0
KHA3 251136Z 35008KT 16/15 A2987 RMK A01 T01600148  RH  093%=      5-min Rain = 0
KHA3 251137Z 35008KT 16/15 A2987 RMK A01 T01600148  RH  092%=      5-min Rain = 0
KHA3 251138Z 34009KT 16/15 A2987 RMK A01 T01600148  RH  092%=      5-min Rain = 0
KHA3 251139Z 33008KT 16/15 A2987 RMK A01 T01600147  RH  092%=      5-min Rain = 0
KHA3 251140Z 33008KT 16/15 A2987 RMK A01 T01610147  RH  092%=      5-min Rain = 0
KHA3 251141Z 33008KT 16/15 A2987 RMK A01 T01610147  RH  092%=      5-min Rain = 0
KHA3 251142Z 33008KT 16/15 A2987 RMK A01 T01610147  RH  092%=      5-min Rain = 0
KHA3 251143Z 33009KT 16/15 A2987 RMK A01 T01610148  RH  092%=      5-min Rain = 0
KHA3 251144Z 33008KT 16/15 A2987 RMK A01 T01610147  RH  092%=      5-min Rain = 0
KHA3 251145Z 32009KT 16/15 A2987 RMK A01 T01610147  RH  092%=      5-min Rain = 0
KHA3 251146Z 33008KT 16/15 A2987 RMK A01 T01610148  RH  092%=      5-min Rain = 0
KHA3 251147Z 33008KT 16/15 A2987 RMK A01 T01610148  RH  092%=      5-min Rain = 0
KHA3 251148Z 33008KT 16/15 A2988 RMK A01 T01610148  RH  092%=      5-min Rain = 0
KHA3 251149Z 33009KT 16/15 A2988 RMK A01 T01610147  RH  092%=      5-min Rain = 0
KHA3 251150Z 33008KT 16/15 A2988 RMK A01 T01610147  RH  091%=      5-min Rain = 0
KHA3 251151Z 33009KT 16/15 A2988 RMK A01 T01610147  RH  091%=      5-min Rain = 0
KHA3 251152Z 33008KT 16/15 A2988 RMK A01 T01610147  RH  091%=      5-min Rain = 0
KHA3 251153Z 32008KT 16/15 A2988 RMK A01 T01610148  RH  092%=      5-min Rain = 0
KHA3 251154Z 33009KT 16/15 A2988 RMK A01 T01610148  RH  092%=      5-min Rain = 0
KHA3 251155Z 33008KT 16/15 A2988 RMK A01 T01610147  RH  091%=      5-min Rain = 0
KHA3 251156Z 32010KT 16/15 A2988 RMK A01 T01620147  RH  091%=      5-min Rain = 0
KHA3 251157Z 33009KT 16/15 A2988 RMK A01 T01620147  RH  091%=      5-min Rain = 0
KHA3 251158Z 33010KT 16/15 A2988 RMK A01 T01620147  RH  091%=      5-min Rain = 0
KHA3 251159Z 33009KT 16/15 A2988 RMK A01 T01620147  RH  090%=      5-min Rain = 0
KHA3 251200Z 32010KT 16/15 A2988 RMK A01 T01630147  RH  090%=      5-min Rain = 0
KHA3 251201Z 32008KT 16/15 A2988 RMK A01 T01630147  RH  090%=      5-min Rain = 0
KHA3 251202Z 32008KT 16/15 A2988 RMK A01 T01630147  RH  090%=      5-min Rain = 0
KHA3 251203Z 32007KT 16/15 A2988 RMK A01 T01630147  RH  090%=      5-min Rain = 0
KHA3 251204Z 32007KT 16/15 A2988 RMK A01 T01630148  RH  091%=      5-min Rain = 0
KHA3 251205Z 32007KT 16/15 A2988 RMK A01 T01630148  RH  091%=      5-min Rain = 0
KHA3 251206Z 33007KT 16/15 A2988 RMK A01 T01630148  RH  091%=      5-min Rain = 0
KHA3 251207Z 32009KT 16/15 A2988 RMK A01 T01630148  RH  091%=      5-min Rain = 0
KHA3 251208Z 33008KT 16/15 A2988 RMK A01 T01630148  RH  091%=      5-min Rain = 0
KHA3 251209Z 32006KT 16/15 A2988 RMK A01 T01630148  RH  091%=      5-min Rain = 0
KHA3 251210Z 32007KT 16/15 A2988 RMK A01 T01630148  RH  091%=      5-min Rain = 0
KHA3 251211Z 32006KT 16/15 A2988 RMK A01 T01630149  RH  091%=      5-min Rain = 0
KHA3 251212Z 32006KT 16/15 A2988 RMK A01 T01630149  RH  091%=      5-min Rain = 0
KHA3 251213Z 33007KT 16/15 A2988 RMK A01 T01630148  RH  091%=      5-min Rain = 0
KHA3 251214Z 33006KT 16/15 A2988 RMK A01 T01630148  RH  091%=      5-min Rain = 0
KHA3 251215Z 33007KT 16/15 A2988 RMK A01 T01640149  RH  091%=      5-min Rain = 0
KHA3 251216Z 33006KT 16/15 A2988 RMK A01 T01640149  RH  091%=      5-min Rain = 0
KHA3 251217Z 33007KT 16/15 A2988 RMK A01 T01630149  RH  091%=      5-min Rain = 0
KHA3 251218Z 33006KT 16/15 A2988 RMK A01 T01640148  RH  091%=      5-min Rain = 0
KHA3 251219Z 34006KT 16/15 A2988 RMK A01 T01640149  RH  091%=      5-min Rain = 0
KHA3 251220Z 34007KT 16/15 A2988 RMK A01 T01640149  RH  091%=      5-min Rain = 0
KHA3 251221Z 34006KT 16/15 A2988 RMK A01 T01640150  RH  091%=      5-min Rain = 0
KHA3 251222Z 34006KT 16/15 A2988 RMK A01 T01640150  RH  092%=      5-min Rain = 0
KHA3 251223Z 34007KT 16/15 A2988 RMK A01 T01640151  RH  092%=      5-min Rain = 0
KHA3 251224Z 35006KT 16/15 A2988 RMK A01 T01640150  RH  092%=      5-min Rain = 0
KHA3 251225Z 35006KT 16/15 A2988 RMK A01 T01640150  RH  092%=      5-min Rain = 0
KHA3 251226Z 35006KT 16/15 A2989 RMK A01 T01640150  RH  091%=      5-min Rain = 0
KHA3 251227Z 35006KT 16/15 A2989 RMK A01 T01640150  RH  091%=      5-min Rain = 0
KHA3 251228Z 35006KT 16/15 A2989 RMK A01 T01640150  RH  092%=      5-min Rain = 0
KHA3 251229Z 36006KT 16/15 A2989 RMK A01 T01640151  RH  092%=      5-min Rain = 0
KHA3 251230Z 35006KT 16/15 A2989 RMK A01 T01640151  RH  092%=      5-min Rain = 0
KHA3 251231Z 36005KT 16/15 A2989 RMK A01 T01640151  RH  092%=      5-min Rain = 0
KHA3 251232Z 36006KT 16/15 A2989 RMK A01 T01640152  RH  092%=      5-min Rain = 0
KHA3 251233Z 36006KT 17/15 A2989 RMK A01 T01650152  RH  092%=      5-min Rain = 0
KHA3 251234Z 00005KT 17/15 A2989 RMK A01 T01650152  RH  092%=      5-min Rain = 0
KHA3 251235Z 36007KT 17/15 A2989 RMK A01 T01650152  RH  092%=      5-min Rain = 0
KHA3 251236Z 36006KT 17/15 A2989 RMK A01 T01650152  RH  092%=      5-min Rain = 0
KHA3 251237Z 36006KT 17/15 A2989 RMK A01 T01650152  RH  092%=      5-min Rain = 0
KHA3 251238Z 35006KT 16/15 A2989 RMK A01 T01640152  RH  092%=      5-min Rain = 0
KHA3 251239Z 35006KT 17/15 A2989 RMK A01 T01650152  RH  092%=      5-min Rain = 0
KHA3 251240Z 35006KT 17/15 A2989 RMK A01 T01650152  RH  092%=      5-min Rain = 0
KHA3 251241Z 35005KT 17/15 A2989 RMK A01 T01650151  RH  092%=      5-min Rain = 0
KHA3 251242Z 35005KT 17/15 A2989 RMK A01 T01650152  RH  092%=      5-min Rain = 0
KHA3 251243Z 35004KT 17/15 A2989 RMK A01 T01650152  RH  092%=      5-min Rain = 0
KHA3 251244Z 35004KT 17/15 A2989 RMK A01 T01650152  RH  092%=      5-min Rain = 0
KHA3 251245Z 35004KT 17/15 A2989 RMK A01 T01650152  RH  092%=      5-min Rain = 0
KHA3 251246Z 36004KT 17/15 A2989 RMK A01 T01650153  RH  092%=      5-min Rain = 0
KHA3 251247Z 36004KT 17/15 A2989 RMK A01 T01650152  RH  092%=      5-min Rain = 0
KHA3 251248Z 00005KT 17/15 A2989 RMK A01 T01650152  RH  092%=      5-min Rain = 0
KHA3 251249Z 01004KT 17/15 A2989 RMK A01 T01650152  RH  092%=      5-min Rain = 0
KHA3 251250Z 00005KT 17/15 A2989 RMK A01 T01650152  RH  092%=      5-min Rain = 0
KHA3 251251Z 00006KT 17/15 A2989 RMK A01 T01650151  RH  091%=      5-min Rain = 0
KHA3 251252Z 01004KT 17/15 A2989 RMK A01 T01660151  RH  091%=      5-min Rain = 0
KHA3 251253Z 00005KT 17/15 A2989 RMK A01 T01660152  RH  091%=      5-min Rain = 0
KHA3 251254Z 00005KT 17/15 A2989 RMK A01 T01660151  RH  091%=      5-min Rain = 0
KHA3 251255Z 36006KT 17/15 A2989 RMK A01 T01660151  RH  091%=      5-min Rain = 0
KHA3 251256Z 36006KT 17/15 A2989 RMK A01 T01660151  RH  091%=      5-min Rain = 0
KHA3 251257Z 35006KT 17/15 A299 RMK A01 T01670152  RH  091%=      5-min Rain = 0
KHA3 251258Z 35005KT 17/15 A299 RMK A01 T01670153  RH  091%=      5-min Rain = 0
KHA3 251259Z 35007KT 17/15 A299 RMK A01 T01670152  RH  091%=      5-min Rain = 0
KHA3 251300Z 35006KT 17/15 A299 RMK A01 T01670151  RH  090%=      5-min Rain = 0
KHA3 251301Z 34006KT 17/15 A299 RMK A01 T01670151  RH  090%=      5-min Rain = 0
KHA3 251302Z 35006KT 17/15 A299 RMK A01 T01680152  RH  091%=      5-min Rain = 0
KHA3 251303Z 35008KT 17/15 A299 RMK A01 T01680151  RH  090%=      5-min Rain = 0
KHA3 251304Z 35008KT 17/15 A299 RMK A01 T01680151  RH  090%=      5-min Rain = 0
KHA3 251305Z 35006KT 17/15 A299 RMK A01 T01680151  RH  090%=      5-min Rain = 0
KHA3 251306Z 35007KT 17/15 A299 RMK A01 T01680152  RH  090%=      5-min Rain = 0
KHA3 251307Z 35010KT 17/15 A299 RMK A01 T01680150  RH  089%=      5-min Rain = 0
KHA3 251308Z 35008KT 17/15 A299 RMK A01 T01690151  RH  089%=      5-min Rain = 0
KHA3 251309Z 35007KT 17/15 A299 RMK A01 T01690151  RH  089%=      5-min Rain = 0
KHA3 251310Z 35007KT 17/15 A299 RMK A01 T01690153  RH  090%=      5-min Rain = 0
KHA3 251311Z 35009KT 17/15 A299 RMK A01 T01690151  RH  089%=      5-min Rain = 0
KHA3 251312Z 35008KT 17/15 A299 RMK A01 T01690149  RH  088%=      5-min Rain = 0
KHA3 251313Z 34008KT 17/15 A299 RMK A01 T01700150  RH  088%=      5-min Rain = 0
KHA3 251314Z 35008KT 17/15 A299 RMK A01 T01700150  RH  088%=      5-min Rain = 0
KHA3 251315Z 36008KT 17/15 A299 RMK A01 T01700151  RH  089%=      5-min Rain = 0
KHA3 251316Z 34010KT 17/15 A299 RMK A01 T01700149  RH  088%=      5-min Rain = 0
KHA3 251317Z 34011KT 17/14 A299 RMK A01 T01700143  RH  084%=      5-min Rain = 0
KHA3 251318Z 00010KT 17/15 A299 RMK A01 T01700145  RH  085%=      5-min Rain = 0
KHA3 251319Z 35010KT 17/14 A299 RMK A01 T01700143  RH  084%=      5-min Rain = 0
KHA3 251320Z 35012KT 17/15 A299 RMK A01 T01700145  RH  085%=      5-min Rain = 0
KHA3 251321Z 36014KT 17/14 A299 RMK A01 T01700140  RH  082%=      5-min Rain = 0
KHA3 251322Z 36013KT 17/14 A299 RMK A01 T01700140  RH  082%=      5-min Rain = 0
KHA3 251323Z 35010KT 17/14 A299 RMK A01 T01700138  RH  081%=      5-min Rain = 0
KHA3 251324Z 36012KT 17/14 A299 RMK A01 T01700140  RH  083%=      5-min Rain = 0
KHA3 251325Z 35012KT 17/14 A299 RMK A01 T01690137  RH  081%=      5-min Rain = 0
KHA3 251326Z 35012KT 17/14 A299 RMK A01 T01690138  RH  082%=      5-min Rain = 0
KHA3 251327Z 35010KT 17/14 A299 RMK A01 T01690136  RH  081%=      5-min Rain = 0
KHA3 251328Z 36014KT 17/14 A299 RMK A01 T01690136  RH  081%=      5-min Rain = 0
KHA3 251329Z 35014KT 17/13 A299 RMK A01 T01690134  RH  080%=      5-min Rain = 0
KHA3 251330Z 35013KT 17/13 A299 RMK A01 T01680134  RH  080%=      5-min Rain = 0
KHA3 251331Z 35014KT 17/13 A299 RMK A01 T01680131  RH  079%=      5-min Rain = 0
KHA3 251332Z 35010KT 17/13 A299 RMK A01 T01680131  RH  079%=      5-min Rain = 0
KHA3 251333Z 35011G16KT 17/14 A299 RMK A01 T01680135  RH  081%=      5-min Rain = 0
KHA3 251334Z 35010KT 17/14 A299 RMK A01 T01670136  RH  082%=      5-min Rain = 0
KHA3 251335Z 36013KT 17/13 A299 RMK A01 T01670131  RH  079%=      5-min Rain = 0
KHA3 251336Z 00013KT 17/13 A299 RMK A01 T01670128  RH  078%=      5-min Rain = 0
KHA3 251337Z 36013KT 17/13 A299 RMK A01 T01670127  RH  077%=      5-min Rain = 0
KHA3 251338Z 36013KT 17/13 A299 RMK A01 T01660129  RH  078%=      5-min Rain = 0
KHA3 251339Z 35015KT 17/13 A299 RMK A01 T01660127  RH  078%=      5-min Rain = 0
KHA3 251340Z 00016KT 17/13 A299 RMK A01 T01660125  RH  077%=      5-min Rain = 0
KHA3 251341Z 00015KT 17/13 A299 RMK A01 T01660125  RH  077%=      5-min Rain = 0
KHA3 251342Z 01015KT 17/12 A299 RMK A01 T01660124  RH  076%=      5-min Rain = 0
KHA3 251343Z 00016KT 17/12 A299 RMK A01 T01650123  RH  076%=      5-min Rain = 0
KHA3 251344Z 01014KT 17/12 A299 RMK A01 T01650121  RH  075%=      5-min Rain = 0
KHA3 251345Z 01012KT 17/12 A299 RMK A01 T01650123  RH  076%=      5-min Rain = 0
KHA3 251346Z 01016KT 17/12 A299 RMK A01 T01650122  RH  076%=      5-min Rain = 0
KHA3 251347Z 00013KT 17/12 A299 RMK A01 T01650123  RH  076%=      5-min Rain = 0
KHA3 251348Z 01011KT 16/13 A299 RMK A01 T01640125  RH  077%=      5-min Rain = 0
KHA3 251349Z 01012KT 16/13 A299 RMK A01 T01640127  RH  078%=      5-min Rain = 0
KHA3 251350Z 01012KT 16/12 A299 RMK A01 T01640123  RH  077%=      5-min Rain = 0
KHA3 251351Z 00011KT 16/12 A299 RMK A01 T01640124  RH  077%=      5-min Rain = 0
KHA3 251352Z 01011KT 16/13 A299 RMK A01 T01640125  RH  078%=      5-min Rain = 0
KHA3 251353Z 01010KT 16/12 A299 RMK A01 T01640124  RH  077%=      5-min Rain = 0
KHA3 251354Z 01009KT 16/13 A299 RMK A01 T01640127  RH  079%=      5-min Rain = 0
KHA3 251355Z 00011KT 16/13 A299 RMK A01 T01640127  RH  079%=      5-min Rain = 0
KHA3 251356Z 01011KT 16/13 A299 RMK A01 T01640128  RH  079%=      5-min Rain = 0
KHA3 251357Z 01013KT 17/13 A299 RMK A01 T01650126  RH  078%=      5-min Rain = 0
KHA3 251358Z 00012KT 17/12 A299 RMK A01 T01650124  RH  077%=      5-min Rain = 0
KHA3 251359Z 00009KT 17/13 A299 RMK A01 T01650125  RH  077%=      5-min Rain = 0
KHA3 251400Z 00010KT 17/13 A299 RMK A01 T01650127  RH  079%=      5-min Rain = 0
KHA3 251401Z 00010KT 16/13 A299 RMK A01 T01640127  RH  079%=      5-min Rain = 0
KHA3 251402Z 00011KT 17/13 A299 RMK A01 T01650128  RH  079%=      5-min Rain = 0
KHA3 251403Z 01009KT 17/13 A299 RMK A01 T01650128  RH  079%=      5-min Rain = 0
KHA3 251404Z 01009KT 16/13 A299 RMK A01 T01640127  RH  079%=      5-min Rain = 0
KHA3 251405Z 01009KT 17/13 A299 RMK A01 T01650130  RH  079%=      5-min Rain = 0
KHA3 251406Z 00010KT 17/13 A299 RMK A01 T01650126  RH  078%=      5-min Rain = 0
KHA3 251407Z 01009KT 17/13 A299 RMK A01 T01650129  RH  079%=      5-min Rain = 0
KHA3 251408Z 01010KT 17/13 A299 RMK A01 T01650129  RH  079%=      5-min Rain = 0
KHA3 251409Z 00010KT 17/13 A299 RMK A01 T01660129  RH  079%=      5-min Rain = 0
KHA3 251410Z 00011KT 17/13 A299 RMK A01 T01660128  RH  078%=      5-min Rain = 0
KHA3 251411Z 00008KT 17/13 A299 RMK A01 T01650129  RH  079%=      5-min Rain = 0
KHA3 251412Z 36008KT 17/13 A299 RMK A01 T01650131  RH  080%=      5-min Rain = 0
KHA3 251413Z 00011KT 17/13 A299 RMK A01 T01660130  RH  079%=      5-min Rain = 0
KHA3 251414Z 01012KT 17/13 A299 RMK A01 T01660127  RH  078%=      5-min Rain = 0
KHA3 251415Z 00010KT 17/13 A2991 RMK A01 T01660126  RH  077%=      5-min Rain = 0
KHA3 251416Z 01010KT 17/13 A2991 RMK A01 T01660128  RH  078%=      5-min Rain = 0
KHA3 251417Z 01011KT 17/13 A2991 RMK A01 T01660126  RH  077%=      5-min Rain = 0
KHA3 251418Z 01009KT 17/13 A2991 RMK A01 T01660129  RH  079%=      5-min Rain = 0
KHA3 251419Z 01009KT 17/13 A2991 RMK A01 T01660129  RH  078%=      5-min Rain = 0
KHA3 251420Z 00008KT 17/13 A2991 RMK A01 T01670130  RH  079%=      5-min Rain = 0
KHA3 251421Z 00008KT 17/13 A2991 RMK A01 T01670130  RH  079%=      5-min Rain = 0
KHA3 251422Z 01008KT 17/13 A2991 RMK A01 T01680132  RH  079%=      5-min Rain = 0
KHA3 251423Z 01010KT 17/13 A2991 RMK A01 T01680128  RH  078%=      5-min Rain = 0
KHA3 251424Z 01010KT 17/13 A2991 RMK A01 T01680128  RH  077%=      5-min Rain = 0
KHA3 251425Z 01010KT 17/13 A2991 RMK A01 T01680127  RH  077%=      5-min Rain = 0
KHA3 251426Z 01011KT 17/13 A2991 RMK A01 T01680127  RH  077%=      5-min Rain = 0
KHA3 251427Z 01010KT 17/12 A2991 RMK A01 T01680124  RH  075%=      5-min Rain = 0
KHA3 251428Z 00010KT 17/13 A2991 RMK A01 T01680127  RH  077%=      5-min Rain = 0
KHA3 251429Z 36009KT 17/13 A2991 RMK A01 T01680127  RH  077%=      5-min Rain = 0
KHA3 251430Z 01010KT 17/13 A2991 RMK A01 T01680130  RH  078%=      5-min Rain = 0
KHA3 251431Z 00012KT 17/13 A2991 RMK A01 T01680126  RH  076%=      5-min Rain = 0
KHA3 251432Z 00010KT 17/13 A2991 RMK A01 T01680126  RH  076%=      5-min Rain = 0
KHA3 251433Z 35011KT 17/13 A2991 RMK A01 T01680129  RH  077%=      5-min Rain = 0
KHA3 251434Z 36009KT 17/13 A2991 RMK A01 T01680128  RH  077%=      5-min Rain = 0
KHA3 251435Z 35008KT 17/13 A2991 RMK A01 T01690131  RH  079%=      5-min Rain = 0
KHA3 251436Z 35011KT 17/13 A2991 RMK A01 T01690130  RH  078%=      5-min Rain = 0
KHA3 251437Z 35012KT 17/13 A2991 RMK A01 T01690126  RH  076%=      5-min Rain = 0
KHA3 251438Z 35010KT 17/13 A2991 RMK A01 T01690125  RH  075%=      5-min Rain = 0
KHA3 251439Z 34012KT 17/13 A2991 RMK A01 T01690125  RH  075%=      5-min Rain = 0
KHA3 251440Z 34011KT 17/13 A2992 RMK A01 T01690125  RH  075%=      5-min Rain = 0
KHA3 251441Z 34011KT 17/13 A2992 RMK A01 T01680126  RH  076%=      5-min Rain = 0
KHA3 251442Z 35010KT 17/13 A2992 RMK A01 T01680125  RH  075%=      5-min Rain = 0
KHA3 251443Z 34008KT 17/13 A2992 RMK A01 T01690129  RH  077%=      5-min Rain = 0
KHA3 251444Z 33011KT 17/13 A2992 RMK A01 T01690129  RH  077%=      5-min Rain = 0
KHA3 251445Z 33011KT 17/13 A2992 RMK A01 T01700127  RH  076%=      5-min Rain = 0
KHA3 251446Z 33010KT 17/13 A2992 RMK A01 T01700128  RH  076%=      5-min Rain = 0
KHA3 251447Z 34009KT 17/13 A2992 RMK A01 T01700130  RH  077%=      5-min Rain = 0
KHA3 251448Z 33009KT 17/13 A2992 RMK A01 T01700133  RH  078%=      5-min Rain = 0
KHA3 251449Z 33010KT 17/13 A2992 RMK A01 T01710129  RH  076%=      5-min Rain = 0
KHA3 251450Z 32011KT 17/13 A2992 RMK A01 T01710130  RH  077%=      5-min Rain = 0
KHA3 251451Z 32011KT 17/13 A2992 RMK A01 T01710130  RH  077%=      5-min Rain = 0
KHA3 251452Z 33013KT 17/13 A2992 RMK A01 T01710127  RH  075%=      5-min Rain = 0
KHA3 251453Z 33012KT 17/13 A2992 RMK A01 T01710129  RH  076%=      5-min Rain = 0
KHA3 251454Z 34013KT 17/13 A2992 RMK A01 T01710128  RH  075%=      5-min Rain = 0
KHA3 251455Z 34012KT 17/13 A2992 RMK A01 T01720129  RH  076%=      5-min Rain = 0
KHA3 251456Z 34014KT 17/13 A2992 RMK A01 T01720129  RH  076%=      5-min Rain = 0
KHA3 251457Z 33014KT 17/13 A2992 RMK A01 T01710127  RH  075%=      5-min Rain = 0
KHA3 251458Z 33012KT 17/13 A2992 RMK A01 T01710128  RH  075%=      5-min Rain = 0
KHA3 251459Z 33012KT 17/13 A2992 RMK A01 T01710129  RH  076%=      5-min Rain = 0
KHA3 251500Z 34011KT 17/13 A2992 RMK A01 T01720130  RH  076%=      5-min Rain = 0
KHA3 251501Z 33013KT 17/13 A2992 RMK A01 T01720130  RH  076%=      5-min Rain = 0
KHA3 251502Z 33014KT 17/13 A2992 RMK A01 T01720128  RH  075%=      5-min Rain = 0
KHA3 251503Z 34014KT 17/13 A2992 RMK A01 T01720128  RH  075%=      5-min Rain = 0
KHA3 251504Z 34014KT 17/13 A2992 RMK A01 T01720127  RH  075%=      5-min Rain = 0
KHA3 251505Z 33014KT 17/13 A2992 RMK A01 T01730127  RH  075%=      5-min Rain = 0
KHA3 251506Z 33012KT 17/13 A2992 RMK A01 T01730126  RH  074%=      5-min Rain = 0
KHA3 251507Z 34012KT 17/13 A2992 RMK A01 T01730127  RH  075%=      5-min Rain = 0
KHA3 251508Z 34011KT 17/13 A2992 RMK A01 T01730129  RH  075%=      5-min Rain = 0
KHA3 251509Z 34010KT 17/13 A2992 RMK A01 T01740129  RH  075%=      5-min Rain = 0
KHA3 251510Z 34013KT 17/13 A2992 RMK A01 T01740129  RH  075%=      5-min Rain = 0
KHA3 251511Z 35011KT 18/13 A2992 RMK A01 T01750128  RH  074%=      5-min Rain = 0
KHA3 251512Z 35011KT 18/13 A2992 RMK A01 T01750131  RH  075%=      5-min Rain = 0
KHA3 251513Z 35014KT 18/13 A2992 RMK A01 T01760129  RH  074%=      5-min Rain = 0
KHA3 251514Z 35013KT 18/13 A2992 RMK A01 T01760126  RH  073%=      5-min Rain = 0
KHA3 251515Z 35013KT 18/13 A2992 RMK A01 T01750127  RH  073%=      5-min Rain = 0
KHA3 251516Z 35012KT 18/13 A2992 RMK A01 T01750127  RH  073%=      5-min Rain = 0
KHA3 251517Z 35012KT 18/13 A2992 RMK A01 T01750127  RH  073%=      5-min Rain = 0
KHA3 251518Z 33013KT 18/13 A2992 RMK A01 T01760126  RH  073%=      5-min Rain = 0
KHA3 251519Z 33012KT 18/13 A2992 RMK A01 T01760127  RH  073%=      5-min Rain = 0
KHA3 251520Z 34010KT 18/13 A2992 RMK A01 T01750129  RH  074%=      5-min Rain = 0
KHA3 251521Z 35010KT 18/13 A2992 RMK A01 T01760129  RH  074%=      5-min Rain = 0
KHA3 251522Z 34011KT 18/13 A2993 RMK A01 T01770131  RH  075%=      5-min Rain = 0
KHA3 251523Z 33010KT 18/13 A2992 RMK A01 T01770130  RH  074%=      5-min Rain = 0
KHA3 251524Z 33009KT 18/13 A2992 RMK A01 T01770129  RH  074%=      5-min Rain = 0
KHA3 251525Z 34007KT 18/13 A2992 RMK A01 T01770132  RH  075%=      5-min Rain = 0
KHA3 251526Z 34009KT 18/14 A2992 RMK A01 T01790135  RH  076%=      5-min Rain = 0
KHA3 251527Z 35010KT 18/13 A2992 RMK A01 T01800134  RH  075%=      5-min Rain = 0
KHA3 251528Z 36012KT 18/13 A2992 RMK A01 T01800130  RH  073%=      5-min Rain = 0
KHA3 251529Z 35012KT 18/13 A2992 RMK A01 T01790131  RH  073%=      5-min Rain = 0
KHA3 251530Z 34012KT 18/13 A2992 RMK A01 T01790130  RH  073%=      5-min Rain = 0
KHA3 251531Z 33013KT 18/13 A2992 RMK A01 T01780130  RH  073%=      5-min Rain = 0
KHA3 251532Z 33012KT 18/13 A2992 RMK A01 T01780127  RH  072%=      5-min Rain = 0
KHA3 251533Z 34012KT 18/13 A2992 RMK A01 T01780129  RH  073%=      5-min Rain = 0
KHA3 251534Z 34012KT 18/13 A2992 RMK A01 T01780130  RH  073%=      5-min Rain = 0
KHA3 251535Z 33013KT 18/13 A2992 RMK A01 T01790130  RH  073%=      5-min Rain = 0
KHA3 251536Z 34012KT 18/13 A2992 RMK A01 T01790127  RH  071%=      5-min Rain = 0
KHA3 251537Z 35013KT 18/13 A2992 RMK A01 T01790129  RH  072%=      5-min Rain = 0
KHA3 251538Z 35012KT 18/13 A2992 RMK A01 T01790126  RH  071%=      5-min Rain = 0
KHA3 251539Z 35012KT 18/13 A2992 RMK A01 T01790127  RH  072%=      5-min Rain = 0
KHA3 251540Z 34012KT 18/13 A2993 RMK A01 T01790127  RH  072%=      5-min Rain = 0
KHA3 251541Z 34011KT 18/13 A2993 RMK A01 T01790126  RH  071%=      5-min Rain = 0
KHA3 251542Z 34011KT 18/13 A2993 RMK A01 T01790126  RH  071%=      5-min Rain = 0
KHA3 251543Z 34011KT 18/13 A2993 RMK A01 T01790127  RH  072%=      5-min Rain = 0
KHA3 251544Z 34011KT 18/13 A2993 RMK A01 T01780127  RH  072%=      5-min Rain = 0
KHA3 251545Z 35011KT 18/13 A2993 RMK A01 T01790127  RH  072%=      5-min Rain = 0
KHA3 251546Z 35010KT 18/13 A2993 RMK A01 T01790127  RH  071%=      5-min Rain = 0
KHA3 251547Z 35010KT 18/13 A2993 RMK A01 T01790127  RH  071%=      5-min Rain = 0
KHA3 251548Z 35011KT 18/13 A2993 RMK A01 T01790126  RH  071%=      5-min Rain = 0
KHA3 251549Z 35010KT 18/13 A2993 RMK A01 T01790127  RH  072%=      5-min Rain = 0
KHA3 251550Z 35010KT 18/13 A2993 RMK A01 T01790128  RH  072%=      5-min Rain = 0
KHA3 251551Z 35010KT 18/13 A2993 RMK A01 T01800130  RH  072%=      5-min Rain = 0
KHA3 251552Z 34010KT 18/13 A2993 RMK A01 T01820131  RH  072%=      5-min Rain = 0
KHA3 251553Z 33009KT 18/13 A2993 RMK A01 T01820130  RH  072%=      5-min Rain = 0
KHA3 251554Z 33011KT 18/13 A2993 RMK A01 T01830130  RH  071%=      5-min Rain = 0
KHA3 251555Z 34010KT 18/13 A2993 RMK A01 T01830130  RH  071%=      5-min Rain = 0
KHA3 251556Z 33012KT 18/13 A2993 RMK A01 T01840131  RH  071%=      5-min Rain = 0
KHA3 251557Z 33012KT 18/13 A2993 RMK A01 T01830128  RH  070%=      5-min Rain = 0
KHA3 251558Z 33012KT 18/13 A2993 RMK A01 T01830128  RH  070%=      5-min Rain = 0
KHA3 251559Z 33013KT 18/13 A2993 RMK A01 T01830128  RH  070%=      5-min Rain = 0
KHA3 251600Z 32013KT 18/13 A2993 RMK A01 T01830127  RH  070%=      5-min Rain = 0
KHA3 251601Z 33012KT 18/13 A2993 RMK A01 T01820127  RH  070%=      5-min Rain = 0
KHA3 251602Z 34012KT 18/13 A2993 RMK A01 T01830127  RH  070%=      5-min Rain = 0
KHA3 251603Z 34011KT 18/13 A2993 RMK A01 T01830130  RH  072%=      5-min Rain = 0
KHA3 251604Z 34014KT 18/13 A2993 RMK A01 T01840129  RH  070%=      5-min Rain = 0
KHA3 251605Z 35013KT 18/13 A2993 RMK A01 T01840129  RH  070%=      5-min Rain = 0
KHA3 251606Z 35011KT 18/13 A2993 RMK A01 T01840129  RH  070%=      5-min Rain = 0
KHA3 251607Z 35011KT 19/13 A2993 RMK A01 T01850132  RH  071%=      5-min Rain = 0
KHA3 251608Z 34012KT 19/13 A2993 RMK A01 T01850130  RH  070%=      5-min Rain = 0
KHA3 251609Z 34011KT 19/13 A2993 RMK A01 T01850130  RH  070%=      5-min Rain = 0
KHA3 251610Z 34012KT 19/13 A2993 RMK A01 T01860128  RH  069%=      5-min Rain = 0
KHA3 251611Z 34009KT 19/13 A2993 RMK A01 T01850131  RH  070%=      5-min Rain = 0
KHA3 251612Z 35009KT 19/13 A2993 RMK A01 T01870134  RH  071%=      5-min Rain = 0
KHA3 251613Z 35013KT 19/13 A2993 RMK A01 T01880132  RH  070%=      5-min Rain = 0
KHA3 251614Z 34013KT 19/13 A2993 RMK A01 T01880128  RH  068%=      5-min Rain = 0
KHA3 251615Z 34013KT 19/13 A2993 RMK A01 T01860128  RH  069%=      5-min Rain = 0
KHA3 251616Z 34011KT 19/13 A2993 RMK A01 T01850127  RH  069%=      5-min Rain = 0
KHA3 251617Z 35012KT 19/13 A2993 RMK A01 T01850129  RH  070%=      5-min Rain = 0
KHA3 251618Z 34011KT 19/13 A2993 RMK A01 T01850127  RH  069%=      5-min Rain = 0
KHA3 251619Z 35011KT 19/13 A2993 RMK A01 T01850129  RH  070%=      5-min Rain = 0
KHA3 251620Z 35011KT 19/13 A2993 RMK A01 T01870130  RH  070%=      5-min Rain = 0
KHA3 251621Z 34012KT 19/13 A2993 RMK A01 T01870131  RH  070%=      5-min Rain = 0
KHA3 251622Z 34011KT 19/13 A2993 RMK A01 T01880130  RH  069%=      5-min Rain = 0
KHA3 251623Z 35011KT 19/13 A2993 RMK A01 T01890133  RH  070%=      5-min Rain = 0
KHA3 251624Z 34012KT 19/13 A2993 RMK A01 T01900133  RH  069%=      5-min Rain = 0
KHA3 251625Z 34014KT 19/13 A2993 RMK A01 T01900129  RH  068%=      5-min Rain = 0
KHA3 251626Z 35013KT 19/13 A2993 RMK A01 T01900130  RH  068%=      5-min Rain = 0
KHA3 251627Z 35013KT 19/13 A2993 RMK A01 T01890131  RH  069%=      5-min Rain = 0
KHA3 251628Z 34012KT 19/13 A2993 RMK A01 T01900130  RH  068%=      5-min Rain = 0
KHA3 251629Z 34012KT 19/13 A2993 RMK A01 T01900131  RH  069%=      5-min Rain = 0
KHA3 251630Z 34011KT 19/13 A2993 RMK A01 T01900130  RH  068%=      5-min Rain = 0
KHA3 251631Z 35011KT 19/13 A2993 RMK A01 T01910133  RH  069%=      5-min Rain = 0
KHA3 251632Z 35012KT 19/13 A2993 RMK A01 T01910131  RH  068%=      5-min Rain = 0
KHA3 251633Z 35013KT 19/13 A2993 RMK A01 T01910132  RH  068%=      5-min Rain = 0
KHA3 251634Z 34012KT 19/13 A2993 RMK A01 T01910129  RH  067%=      5-min Rain = 0
KHA3 251635Z 34012KT 19/13 A2993 RMK A01 T01890129  RH  068%=      5-min Rain = 0
KHA3 251636Z 35012KT 19/13 A2993 RMK A01 T01900131  RH  069%=      5-min Rain = 0
KHA3 251637Z 34011KT 19/13 A2993 RMK A01 T01920134  RH  069%=      5-min Rain = 0
KHA3 251638Z 34010KT 19/14 A2993 RMK A01 T01940135  RH  069%=      5-min Rain = 0
KHA3 251639Z 35011KT 20/13 A2993 RMK A01 T01950130  RH  066%=      5-min Rain = 0
KHA3 251640Z 34012KT 19/13 A2993 RMK A01 T01940132  RH  068%=      5-min Rain = 0
KHA3 251641Z 33012KT 19/13 A2993 RMK A01 T01940133  RH  068%=      5-min Rain = 0
KHA3 251642Z 33012KT 20/13 A2993 RMK A01 T01950131  RH  067%=      5-min Rain = 0
KHA3 251643Z 34009KT 19/13 A2993 RMK A01 T01940132  RH  067%=      5-min Rain = 0
KHA3 251644Z 33009KT 19/13 A2993 RMK A01 T01940133  RH  068%=      5-min Rain = 0
KHA3 251645Z 34013KT 20/13 A2993 RMK A01 T01950133  RH  067%=      5-min Rain = 0
KHA3 251646Z 35011KT 20/13 A2993 RMK A01 T01950132  RH  067%=      5-min Rain = 0
KHA3 251647Z 34008G13KT 20/13 A2993 RMK A01 T01950132  RH  067%=      5-min Rain = 0
KHA3 251648Z 35011G16KT 20/13 A2993 RMK A01 T01950134  RH  068%=      5-min Rain = 0
KHA3 251649Z 34013KT 20/13 A2993 RMK A01 T01960131  RH  066%=      5-min Rain = 0
KHA3 251650Z 33013KT 20/13 A2993 RMK A01 T01950132  RH  067%=      5-min Rain = 0
KHA3 251651Z 33013KT 20/13 A2993 RMK A01 T01950131  RH  066%=      5-min Rain = 0
KHA3 251652Z 34011KT 20/13 A2993 RMK A01 T01950132  RH  067%=      5-min Rain = 0
KHA3 251653Z 35011KT 20/14 A2993 RMK A01 T01970136  RH  068%=      5-min Rain = 0
KHA3 251654Z 36013KT 20/14 A2993 RMK A01 T01990137  RH  067%=      5-min Rain = 0
KHA3 251655Z 34013KT 20/13 A2993 RMK A01 T02000134  RH  066%=      5-min Rain = 0
KHA3 251656Z 35012KT 20/13 A2993 RMK A01 T01990133  RH  066%=      5-min Rain = 0
KHA3 251657Z 34010KT 20/13 A2993 RMK A01 T01980132  RH  066%=      5-min Rain = 0
KHA3 251658Z 34009KT 20/13 A2993 RMK A01 T01970134  RH  067%=      5-min Rain = 0
KHA3 251659Z 33010KT 20/14 A2993 RMK A01 T01980136  RH  068%=      5-min Rain = 0
KHA3 251700Z 33013KT 20/13 A2992 RMK A01 T01990133  RH  066%=      5-min Rain = 0
KHA3 251701Z 33014KT 20/13 A2992 RMK A01 T01990133  RH  066%=      5-min Rain = 0
KHA3 251702Z 34013KT 20/13 A2992 RMK A01 T01980131  RH  065%=      5-min Rain = 0
KHA3 251703Z 34012KT 20/13 A2993 RMK A01 T01970133  RH  066%=      5-min Rain = 0
KHA3 251704Z 33013KT 20/13 A2992 RMK A01 T01980133  RH  066%=      5-min Rain = 0
KHA3 251705Z 33012KT 20/14 A2993 RMK A01 T01990137  RH  068%=      5-min Rain = 0
KHA3 251706Z 33012KT 20/13 A2992 RMK A01 T02010133  RH  065%=      5-min Rain = 0
KHA3 251707Z 33013KT 20/14 A2992 RMK A01 T02010135  RH  066%=      5-min Rain = 0
KHA3 251708Z 32011KT 20/13 A2992 RMK A01 T02010133  RH  065%=      5-min Rain = 0
KHA3 251709Z 34010KT 20/14 A2992 RMK A01 T02020141  RH  068%=      5-min Rain = 0
KHA3 251710Z 34010KT 21/14 A2992 RMK A01 T02060140  RH  066%=      5-min Rain = 0
KHA3 251711Z 33010KT 21/14 A2992 RMK A01 T02080141  RH  065%=      5-min Rain = 0
KHA3 251712Z 34011KT 21/14 A2992 RMK A01 T02080138  RH  064%=      5-min Rain = 0
KHA3 251713Z 34011KT 21/14 A2992 RMK A01 T02080137  RH  064%=      5-min Rain = 0
KHA3 251714Z 34009KT 21/13 A2992 RMK A01 T02060134  RH  063%=      5-min Rain = 0
KHA3 251715Z 35010G15KT 21/14 A2992 RMK A01 T02060142  RH  067%=      5-min Rain = 0
KHA3 251716Z 35013KT 21/14 A2992 RMK A01 T02080138  RH  064%=      5-min Rain = 0
KHA3 251717Z 34013KT 21/14 A2993 RMK A01 T02080136  RH  063%=      5-min Rain = 0
KHA3 251718Z 35012KT 21/14 A2993 RMK A01 T02060135  RH  064%=      5-min Rain = 0
KHA3 251719Z 35010KT 21/14 A2992 RMK A01 T02050136  RH  064%=      5-min Rain = 0
KHA3 251720Z 35008KT 21/13 A2992 RMK A01 T02050134  RH  064%=      5-min Rain = 0
KHA3 251721Z 01009KT 20/14 A2992 RMK A01 T02040138  RH  066%=      5-min Rain = 0
KHA3 251722Z 35010KT 21/14 A2992 RMK A01 T02060139  RH  065%=      5-min Rain = 0
KHA3 251723Z 35013KT 21/14 A2992 RMK A01 T02080141  RH  065%=      5-min Rain = 0
KHA3 251724Z 35010KT 21/14 A2992 RMK A01 T02080139  RH  064%=      5-min Rain = 0
KHA3 251725Z 35012KT 21/14 A2992 RMK A01 T02080138  RH  064%=      5-min Rain = 0
KHA3 251726Z 35012KT 21/14 A2992 RMK A01 T02080138  RH  064%=      5-min Rain = 0
KHA3 251727Z 34013KT 21/14 A2992 RMK A01 T02090140  RH  065%=      5-min Rain = 0
KHA3 251728Z 34011KT 21/14 A2992 RMK A01 T02090137  RH  063%=      5-min Rain = 0
KHA3 251729Z 35013KT 21/14 A2992 RMK A01 T02090140  RH  065%=      5-min Rain = 0
KHA3 251730Z 35014KT 21/14 A2992 RMK A01 T02100138  RH  063%=      5-min Rain = 0
KHA3 251731Z 34012KT 21/14 A2993 RMK A01 T02080135  RH  063%=      5-min Rain = 0
KHA3 251732Z 35010KT 21/13 A2992 RMK A01 T02060134  RH  063%=      5-min Rain = 0
KHA3 251733Z 34011KT 20/14 A2992 RMK A01 T02040136  RH  065%=      5-min Rain = 0
KHA3 251734Z 33014KT 21/14 A2993 RMK A01 T02070140  RH  066%=      5-min Rain = 0
KHA3 251735Z 32011KT 21/14 A2992 RMK A01 T02080135  RH  063%=      5-min Rain = 0
KHA3 251736Z 32012G17KT 21/14 A2992 RMK A01 T02060137  RH  064%=      5-min Rain = 0
KHA3 251737Z 34016KT 21/14 A2992 RMK A01 T02070139  RH  065%=      5-min Rain = 0
KHA3 251738Z 33013KT 21/14 A2992 RMK A01 T02090138  RH  064%=      5-min Rain = 0
KHA3 251739Z 33013KT 21/14 A2992 RMK A01 T02080138  RH  064%=      5-min Rain = 0
KHA3 251740Z 33013KT 21/14 A2992 RMK A01 T02080138  RH  064%=      5-min Rain = 0
KHA3 251741Z 35008KT 21/14 A2992 RMK A01 T02070140  RH  065%=      5-min Rain = 0
KHA3 251742Z 34010KT 21/14 A2992 RMK A01 T02090143  RH  066%=      5-min Rain = 0
KHA3 251743Z 35015KT 21/14 A2992 RMK A01 T02120142  RH  064%=      5-min Rain = 0
KHA3 251744Z 36013KT 21/14 A2992 RMK A01 T02110139  RH  063%=      5-min Rain = 0
KHA3 251745Z 35012KT 21/14 A2992 RMK A01 T02110137  RH  063%=      5-min Rain = 0
KHA3 251746Z 35009KT 21/14 A2992 RMK A01 T02090138  RH  064%=      5-min Rain = 0
KHA3 251747Z 34011KT 21/14 A2992 RMK A01 T02080139  RH  064%=      5-min Rain = 0
KHA3 251748Z 33013KT 21/14 A2992 RMK A01 T02090137  RH  064%=      5-min Rain = 0
KHA3 251749Z 32011KT 21/14 A2992 RMK A01 T02090138  RH  064%=      5-min Rain = 0
KHA3 251750Z 33009KT 21/14 A2992 RMK A01 T02090141  RH  065%=      5-min Rain = 0
KHA3 251751Z 34012KT 21/14 A2992 RMK A01 T02120141  RH  064%=      5-min Rain = 0
KHA3 251752Z 35015KT 21/14 A2992 RMK A01 T02120142  RH  064%=      5-min Rain = 0
KHA3 251753Z 36015KT 21/14 A2992 RMK A01 T02120139  RH  063%=      5-min Rain = 0
KHA3 251754Z 36015KT 21/14 A2992 RMK A01 T02100139  RH  064%=      5-min Rain = 0
KHA3 251755Z 35010KT 21/14 A2992 RMK A01 T02100139  RH  064%=      5-min Rain = 0
KHA3 251756Z 34012KT 21/14 A2992 RMK A01 T02110142  RH  065%=      5-min Rain = 0
KHA3 251757Z 34013KT 21/14 A2992 RMK A01 T02120142  RH  064%=      5-min Rain = 0
KHA3 251758Z 34010KT 21/14 A2992 RMK A01 T02110139  RH  063%=      5-min Rain = 0
KHA3 251759Z 34011KT 21/14 A2992 RMK A01 T02100141  RH  064%=      5-min Rain = 0
KHA3 251800Z 33013KT 21/14 A2992 RMK A01 T02110140  RH  064%=      5-min Rain = 0
KHA3 251801Z 34012KT 21/14 A2992 RMK A01 T02110143  RH  065%=      5-min Rain = 0
KHA3 251802Z 36013KT 21/14 A2992 RMK A01 T02140142  RH  064%=      5-min Rain = 0
KHA3 251803Z 34014KT 21/14 A2992 RMK A01 T02140141  RH  063%=      5-min Rain = 0
KHA3 251804Z 35012KT 21/14 A2992 RMK A01 T02130140  RH  063%=      5-min Rain = 0
KHA3 251805Z 35009KT 21/14 A2992 RMK A01 T02130142  RH  064%=      5-min Rain = 0
KHA3 251806Z 35013KT 22/14 A2992 RMK A01 T02150142  RH  063%=      5-min Rain = 0
KHA3 251807Z 00011KT 22/14 A2992 RMK A01 T02150143  RH  064%=      5-min Rain = 0
KHA3 251808Z 35013KT 22/14 A2992 RMK A01 T02160140  RH  062%=      5-min Rain = 0
KHA3 251809Z 35012KT 22/14 A2992 RMK A01 T02150141  RH  063%=      5-min Rain = 0
KHA3 251810Z 34011KT 21/14 A2992 RMK A01 T02140139  RH  062%=      5-min Rain = 0
KHA3 251811Z 35011KT 22/14 A2992 RMK A01 T02150143  RH  064%=      5-min Rain = 0
KHA3 251812Z 36011KT 22/15 A2992 RMK A01 T02170145  RH  063%=      5-min Rain = 0
KHA3 251813Z 00012KT 22/14 A2992 RMK A01 T02190144  RH  062%=      5-min Rain = 0
KHA3 251814Z 01012KT 22/14 A2992 RMK A01 T02180142  RH  062%=      5-min Rain = 0
KHA3 251815Z 00013KT 22/14 A2992 RMK A01 T02170143  RH  063%=      5-min Rain = 0
KHA3 251816Z 35014KT 22/14 A2992 RMK A01 T02170144  RH  063%=      5-min Rain = 0
KHA3 251817Z 35012KT 22/14 A2992 RMK A01 T02180143  RH  063%=      5-min Rain = 0
KHA3 251818Z 01009KT 22/14 A2992 RMK A01 T02170141  RH  062%=      5-min Rain = 0
KHA3 251819Z 00010KT 22/14 A2991 RMK A01 T02170144  RH  063%=      5-min Rain = 0
KHA3 251820Z 35013KT 22/14 A2992 RMK A01 T02190143  RH  062%=      5-min Rain = 0
KHA3 251821Z 36009KT 22/14 A2991 RMK A01 T02190141  RH  061%=      5-min Rain = 0
KHA3 251822Z 34012KT 22/14 A2991 RMK A01 T02170143  RH  063%=      5-min Rain = 0
KHA3 251823Z 34013KT 22/14 A2991 RMK A01 T02170143  RH  063%=      5-min Rain = 0
KHA3 251824Z 32012KT 22/14 A2991 RMK A01 T02170141  RH  062%=      5-min Rain = 0
KHA3 251825Z 33010KT 22/14 A2991 RMK A01 T02160142  RH  063%=      5-min Rain = 0
KHA3 251826Z 33010KT 22/15 A2991 RMK A01 T02160146  RH  064%=      5-min Rain = 0
KHA3 251827Z 33013KT 22/15 A2991 RMK A01 T02200147  RH  063%=      5-min Rain = 0
KHA3 251828Z 35011KT 22/15 A2991 RMK A01 T02210146  RH  062%=      5-min Rain = 0
KHA3 251829Z 01011KT 22/14 A2991 RMK A01 T02210142  RH  061%=      5-min Rain = 0
KHA3 251830Z 36012KT 22/14 A2991 RMK A01 T02190142  RH  062%=      5-min Rain = 0
KHA3 251831Z 01011KT 22/15 A2991 RMK A01 T02190145  RH  063%=      5-min Rain = 0
KHA3 251832Z 00010KT 22/14 A2991 RMK A01 T02190143  RH  062%=      5-min Rain = 0
KHA3 251833Z 36012KT 22/14 A2991 RMK A01 T02180142  RH  062%=      5-min Rain = 0
KHA3 251834Z 35013KT 22/14 A2991 RMK A01 T02170144  RH  063%=      5-min Rain = 0
KHA3 251835Z 00012KT 22/15 A2991 RMK A01 T02190145  RH  063%=      5-min Rain = 0
KHA3 251836Z 34011KT 22/14 A2991 RMK A01 T02200142  RH  061%=      5-min Rain = 0
KHA3 251837Z 33011KT 22/14 A2991 RMK A01 T02190144  RH  062%=      5-min Rain = 0
KHA3 251838Z 34009KT 22/14 A2991 RMK A01 T02180141  RH  061%=      5-min Rain = 0
KHA3 251839Z 33009KT 22/15 A2991 RMK A01 T02180147  RH  064%=      5-min Rain = 0
KHA3 251840Z 33009KT 22/14 A2991 RMK A01 T02200143  RH  062%=      5-min Rain = 0
KHA3 251841Z 34008KT 22/14 A2991 RMK A01 T02190142  RH  061%=      5-min Rain = 0
KHA3 251842Z 35009KT 22/14 A2991 RMK A01 T02190144  RH  063%=      5-min Rain = 0
KHA3 251843Z 36010KT 22/15 A2991 RMK A01 T02200150  RH  064%=      5-min Rain = 0
KHA3 251844Z 36011KT 22/14 A2991 RMK A01 T02220144  RH  061%=      5-min Rain = 0
KHA3 251845Z 34010KT 22/15 A2991 RMK A01 T02220149  RH  063%=      5-min Rain = 0
KHA3 251846Z 34009KT 22/14 A2991 RMK A01 T02230143  RH  061%=      5-min Rain = 0
KHA3 251847Z 33010KT 22/14 A2991 RMK A01 T02200142  RH  061%=      5-min Rain = 0
KHA3 251848Z 34012KT 22/14 A2991 RMK A01 T02190143  RH  062%=      5-min Rain = 0
KHA3 251849Z 34013KT 22/15 A299 RMK A01 T02190145  RH  063%=      5-min Rain = 0
KHA3 251850Z 35013KT 22/15 A299 RMK A01 T02220147  RH  063%=      5-min Rain = 0
KHA3 251851Z 36011KT 22/15 A299 RMK A01 T02240148  RH  062%=      5-min Rain = 0
KHA3 251852Z 36012KT 23/15 A2991 RMK A01 T02260149  RH  062%=      5-min Rain = 0
KHA3 251853Z 36012KT 23/14 A2991 RMK A01 T02260144  RH  060%=      5-min Rain = 0
KHA3 251854Z 35009KT 22/14 A2991 RMK A01 T02220142  RH  061%=      5-min Rain = 0
KHA3 251855Z 34011KT 22/15 A2991 RMK A01 T02220145  RH  062%=      5-min Rain = 0
KHA3 251856Z 34014KT 22/14 A2991 RMK A01 T02230144  RH  061%=      5-min Rain = 0
KHA3 251857Z 36013KT 22/15 A299 RMK A01 T02210146  RH  062%=      5-min Rain = 0
KHA3 251858Z 35010KT 22/15 A299 RMK A01 T02230148  RH  063%=      5-min Rain = 0
KHA3 251859Z 34010KT 23/15 A299 RMK A01 T02260149  RH  062%=      5-min Rain = 0
KHA3 251900Z 34008KT 23/15 A299 RMK A01 T02260146  RH  061%=      5-min Rain = 0
KHA3 251901Z 35011KT 23/15 A299 RMK A01 T02250147  RH  061%=      5-min Rain = 0
KHA3 251902Z 35012KT 23/15 A299 RMK A01 T02250149  RH  062%=      5-min Rain = 0
KHA3 251903Z 35011KT 23/15 A299 RMK A01 T02260146  RH  061%=      5-min Rain = 0
KHA3 251904Z 35013KT 23/15 A299 RMK A01 T02260147  RH  061%=      5-min Rain = 0
KHA3 251905Z 34013KT 23/15 A299 RMK A01 T02270147  RH  061%=      5-min Rain = 0
KHA3 251906Z 35012KT 23/15 A299 RMK A01 T02270147  RH  061%=      5-min Rain = 0
KHA3 251907Z 33012KT 23/15 A299 RMK A01 T02270147  RH  061%=      5-min Rain = 0
KHA3 251908Z 34012KT 23/15 A299 RMK A01 T02250147  RH  061%=      5-min Rain = 0
KHA3 251909Z 35011KT 23/15 A299 RMK A01 T02260150  RH  062%=      5-min Rain = 0
KHA3 251910Z 36009KT 23/15 A299 RMK A01 T02280152  RH  062%=      5-min Rain = 0
KHA3 251911Z 34011KT 23/15 A299 RMK A01 T02310150  RH  061%=      5-min Rain = 0
KHA3 251912Z 35012KT 23/15 A299 RMK A01 T02300148  RH  060%=      5-min Rain = 0
KHA3 251913Z 01016KT 23/15 A299 RMK A01 T02270145  RH  060%=      5-min Rain = 0
KHA3 251914Z 01012KT 23/14 A299 RMK A01 T02260144  RH  060%=      5-min Rain = 0
KHA3 251915Z 02011KT 23/15 A299 RMK A01 T02250146  RH  061%=      5-min Rain = 0
KHA3 251916Z 36013KT 23/15 A299 RMK A01 T02270150  RH  062%=      5-min Rain = 0
KHA3 251917Z 35011KT 23/15 A299 RMK A01 T02300152  RH  061%=      5-min Rain = 0
KHA3 251918Z 34010KT 23/15 A299 RMK A01 T02300148  RH  060%=      5-min Rain = 0
KHA3 251919Z 00010KT 23/15 A299 RMK A01 T02270146  RH  060%=      5-min Rain = 0
KHA3 251920Z 36014KT 23/15 A299 RMK A01 T02270152  RH  062%=      5-min Rain = 0
KHA3 251921Z 00014KT 23/15 A299 RMK A01 T02300149  RH  060%=      5-min Rain = 0
KHA3 251922Z 34014KT 23/15 A299 RMK A01 T02290147  RH  060%=      5-min Rain = 0
KHA3 251923Z 34012KT 23/15 A299 RMK A01 T02260146  RH  061%=      5-min Rain = 0
KHA3 251924Z 36009KT 23/15 A299 RMK A01 T02260148  RH  061%=      5-min Rain = 0
KHA3 251925Z 01011KT 23/15 A299 RMK A01 T02280148  RH  061%=      5-min Rain = 0
KHA3 251926Z 01010KT 23/15 A299 RMK A01 T02300149  RH  060%=      5-min Rain = 0
KHA3 251927Z 00010KT 23/15 A299 RMK A01 T02320148  RH  059%=      5-min Rain = 0
KHA3 251928Z 35007G14KT 23/14 A299 RMK A01 T02310144  RH  058%=      5-min Rain = 0
KHA3 251929Z 35013KT 23/15 A299 RMK A01 T02280148  RH  060%=      5-min Rain = 0
KHA3 251930Z 35012KT 23/15 A299 RMK A01 T02260147  RH  061%=      5-min Rain = 0
KHA3 251931Z 35011KT 23/15 A299 RMK A01 T02260147  RH  061%=      5-min Rain = 0
KHA3 251932Z 36013KT 23/15 A299 RMK A01 T02280149  RH  061%=      5-min Rain = 0
KHA3 251933Z 01011KT 23/15 A299 RMK A01 T02280146  RH  060%=      5-min Rain = 0
KHA3 251934Z 01010KT 22/15 A299 RMK A01 T02240146  RH  061%=      5-min Rain = 0
KHA3 251935Z 35011KT 23/15 A299 RMK A01 T02250150  RH  063%=      5-min Rain = 0
KHA3 251936Z 34014KT 23/15 A299 RMK A01 T02270150  RH  062%=      5-min Rain = 0
KHA3 251937Z 35010KT 23/15 A299 RMK A01 T02270149  RH  061%=      5-min Rain = 0
KHA3 251938Z 00009KT 23/15 A299 RMK A01 T02260151  RH  062%=      5-min Rain = 0
KHA3 251939Z 01011KT 23/15 A299 RMK A01 T02300151  RH  061%=      5-min Rain = 0
KHA3 251940Z 01011KT 23/15 A299 RMK A01 T02320151  RH  060%=      5-min Rain = 0
KHA3 251941Z 35010KT 23/15 A299 RMK A01 T02340151  RH  059%=      5-min Rain = 0
KHA3 251942Z 34010KT 23/15 A299 RMK A01 T02330149  RH  059%=      5-min Rain = 0
KHA3 251943Z 33009KT 23/15 A299 RMK A01 T02310148  RH  060%=      5-min Rain = 0
KHA3 251944Z 35010KT 23/15 A299 RMK A01 T02280148  RH  061%=      5-min Rain = 0
KHA3 251945Z 00011KT 23/15 A299 RMK A01 T02280149  RH  061%=      5-min Rain = 0
KHA3 251946Z 00008KT 23/15 A299 RMK A01 T02290151  RH  061%=      5-min Rain = 0
KHA3 251947Z 01011KT 23/15 A2989 RMK A01 T02330153  RH  061%=      5-min Rain = 0
KHA3 251948Z 01011KT 23/15 A2989 RMK A01 T02340150  RH  059%=      5-min Rain = 0
KHA3 251949Z 01011KT 23/15 A2989 RMK A01 T02330148  RH  059%=      5-min Rain = 0
KHA3 251950Z 03008KT 23/14 A2989 RMK A01 T02310144  RH  058%=      5-min Rain = 0
KHA3 251951Z 01012KT 23/15 A2989 RMK A01 T02300149  RH  060%=      5-min Rain = 0
KHA3 251952Z 36012KT 23/15 A299 RMK A01 T02320148  RH  059%=      5-min Rain = 0
KHA3 251953Z 35009KT 23/15 A2989 RMK A01 T02320147  RH  059%=      5-min Rain = 0
KHA3 251954Z 35009KT 23/15 A2989 RMK A01 T02320152  RH  061%=      5-min Rain = 0
KHA3 251955Z 35012KT 24/15 A2989 RMK A01 T02350151  RH  059%=      5-min Rain = 0
KHA3 251956Z 34012G19KT 24/15 A2989 RMK A01 T02350150  RH  059%=      5-min Rain = 0
KHA3 251957Z 35014KT 24/15 A2989 RMK A01 T02350150  RH  059%=      5-min Rain = 0
KHA3 251958Z 00011KT 23/15 A2989 RMK A01 T02340148  RH  059%=      5-min Rain = 0
KHA3 251959Z 35011KT 23/15 A2989 RMK A01 T02330149  RH  059%=      5-min Rain = 0
KHA3 252000Z 33011KT 23/15 A2989 RMK A01 T02340151  RH  060%=      5-min Rain = 0
KHA3 252001Z 34012KT 24/15 A2989 RMK A01 T02350148  RH  058%=      5-min Rain = 0
KHA3 252002Z 35008KT 23/15 A2989 RMK A01 T02320146  RH  058%=      5-min Rain = 0
KHA3 252003Z 36014KT 23/15 A2989 RMK A01 T02300148  RH  060%=      5-min Rain = 0
KHA3 252004Z 00015KT 23/15 A2989 RMK A01 T02300148  RH  060%=      5-min Rain = 0
KHA3 252005Z 35012KT 23/15 A2989 RMK A01 T02320152  RH  061%=      5-min Rain = 0
KHA3 252006Z 36012KT 24/15 A2989 RMK A01 T02360153  RH  060%=      5-min Rain = 0
KHA3 252007Z 01010KT 24/15 A2989 RMK A01 T02370147  RH  057%=      5-min Rain = 0
KHA3 252008Z 01007KT 24/15 A2989 RMK A01 T02350152  RH  059%=      5-min Rain = 0
KHA3 252009Z 01010G15KT 24/15 A2989 RMK A01 T02360152  RH  059%=      5-min Rain = 0
KHA3 252010Z 01012KT 24/15 A2989 RMK A01 T02370149  RH  058%=      5-min Rain = 0
KHA3 252011Z 36010KT 24/14 A2989 RMK A01 T02350144  RH  057%=      5-min Rain = 0
KHA3 252012Z 00007KT 23/15 A2989 RMK A01 T02330145  RH  058%=      5-min Rain = 0
KHA3 252013Z 35008KT 23/15 A2989 RMK A01 T02340150  RH  059%=      5-min Rain = 0
KHA3 252014Z 01013KT 24/15 A2989 RMK A01 T02360149  RH  058%=      5-min Rain = 0
KHA3 252015Z 01013KT 24/15 A2989 RMK A01 T02350146  RH  057%=      5-min Rain = 0
KHA3 252016Z 02011KT 23/15 A2989 RMK A01 T02330147  RH  059%=      5-min Rain = 0
KHA3 252017Z 02010KT 23/14 A2989 RMK A01 T02310143  RH  058%=      5-min Rain = 0
KHA3 252018Z 02009KT 23/15 A2989 RMK A01 T02300147  RH  060%=      5-min Rain = 0
KHA3 252019Z 01014KT 23/15 A2989 RMK A01 T02310147  RH  059%=      5-min Rain = 0
KHA3 252020Z 00011KT 23/15 A2989 RMK A01 T02310145  RH  058%=      5-min Rain = 0
KHA3 252021Z 00011KT 23/15 A2989 RMK A01 T02310147  RH  059%=      5-min Rain = 0
KHA3 252022Z 01008KT 23/15 A2989 RMK A01 T02320146  RH  058%=      5-min Rain = 0
KHA3 252023Z 00009KT 23/15 A2989 RMK A01 T02330150  RH  060%=      5-min Rain = 0
KHA3 252024Z 00008KT 24/15 A2989 RMK A01 T02360148  RH  058%=      5-min Rain = 0
KHA3 252025Z 00012KT 24/15 A2989 RMK A01 T02380149  RH  058%=      5-min Rain = 0
KHA3 252026Z 35014KT 24/15 A2989 RMK A01 T02370147  RH  057%=      5-min Rain = 0
KHA3 252027Z 34012KT 23/15 A2989 RMK A01 T02330145  RH  057%=      5-min Rain = 0
KHA3 252028Z 34010KT 23/15 A2989 RMK A01 T02300145  RH  059%=      5-min Rain = 0
KHA3 252029Z 36012KT 23/15 A2989 RMK A01 T02300147  RH  059%=      5-min Rain = 0
KHA3 252030Z 02011KT 23/15 A2989 RMK A01 T02320148  RH  059%=      5-min Rain = 0
KHA3 252031Z 02011KT 24/15 A2989 RMK A01 T02350148  RH  058%=      5-min Rain = 0
KHA3 252032Z 02011KT 24/15 A2989 RMK A01 T02360148  RH  057%=      5-min Rain = 0
KHA3 252033Z 01010G15KT 23/15 A2989 RMK A01 T02340145  RH  057%=      5-min Rain = 0
KHA3 252034Z 36014KT 23/15 A2989 RMK A01 T02320148  RH  059%=      5-min Rain = 0
KHA3 252035Z 00013KT 23/14 A2989 RMK A01 T02310144  RH  058%=      5-min Rain = 0
KHA3 252036Z 00010KT 23/15 A2989 RMK A01 T02290145  RH  059%=      5-min Rain = 0
KHA3 252037Z 35010KT 23/15 A2989 RMK A01 T02300146  RH  059%=      5-min Rain = 0
KHA3 252038Z 35011KT 23/15 A2989 RMK A01 T02320146  RH  058%=      5-min Rain = 0
KHA3 252039Z 35012KT 23/15 A2989 RMK A01 T02340147  RH  058%=      5-min Rain = 0
KHA3 252040Z 35012KT 23/14 A2989 RMK A01 T02340144  RH  057%=      5-min Rain = 0
KHA3 252041Z 01010KT 23/15 A2989 RMK A01 T02320146  RH  058%=      5-min Rain = 0
KHA3 252042Z 01010KT 23/15 A2989 RMK A01 T02310147  RH  059%=      5-min Rain = 0
KHA3 252043Z 02011KT 23/14 A2989 RMK A01 T02320144  RH  058%=      5-min Rain = 0
KHA3 252044Z 01014G22KT 23/14 A2989 RMK A01 T02310143  RH  058%=      5-min Rain = 0
KHA3 252045Z 02015KT 23/14 A2989 RMK A01 T02290144  RH  059%=      5-min Rain = 0
KHA3 252046Z 00012KT 23/15 A2989 RMK A01 T02280146  RH  060%=      5-min Rain = 0
KHA3 252047Z 36016KT 23/15 A2989 RMK A01 T02290147  RH  060%=      5-min Rain = 0
KHA3 252048Z 00013KT 23/15 A2989 RMK A01 T02290145  RH  059%=      5-min Rain = 0
KHA3 252049Z 01012KT 23/14 A2989 RMK A01 T02290143  RH  058%=      5-min Rain = 0
KHA3 252050Z 01012KT 23/14 A2989 RMK A01 T02270142  RH  059%=      5-min Rain = 0
KHA3 252051Z 00013KT 23/14 A2989 RMK A01 T02260144  RH  060%=      5-min Rain = 0
KHA3 252052Z 01013KT 23/14 A2989 RMK A01 T02260142  RH  059%=      5-min Rain = 0
KHA3 252053Z 01011KT 23/14 A2989 RMK A01 T02250141  RH  059%=      5-min Rain = 0
KHA3 252054Z 00013KT 22/14 A2989 RMK A01 T02240140  RH  059%=      5-min Rain = 0
KHA3 252055Z 01014KT 22/14 A2989 RMK A01 T02240143  RH  060%=      5-min Rain = 0
KHA3 252056Z 01012KT 23/14 A2989 RMK A01 T02250142  RH  059%=      5-min Rain = 0
KHA3 252057Z 01012KT 23/14 A2989 RMK A01 T02250144  RH  060%=      5-min Rain = 0
KHA3 252058Z 01011KT 23/14 A2989 RMK A01 T02260143  RH  059%=      5-min Rain = 0
KHA3 252059Z 35009KT 23/14 A2989 RMK A01 T02270143  RH  059%=      5-min Rain = 0
KHA3 252100Z 35009KT 23/14 A2989 RMK A01 T02270142  RH  058%=      5-min Rain = 0
KHA3 252101Z 01009KT 23/14 A2989 RMK A01 T02280142  RH  058%=      5-min Rain = 0
KHA3 252102Z 34011KT 23/15 A2989 RMK A01 T02310147  RH  059%=      5-min Rain = 0
KHA3 252103Z 00011KT 24/15 A2989 RMK A01 T02360152  RH  059%=      5-min Rain = 0
KHA3 252104Z 00011KT 24/15 A2989 RMK A01 T02370148  RH  057%=      5-min Rain = 0
KHA3 252105Z 36011KT 24/15 A2989 RMK A01 T02370148  RH  057%=      5-min Rain = 0
KHA3 252106Z 36009KT 24/15 A2989 RMK A01 T02360145  RH  057%=      5-min Rain = 0
KHA3 252107Z 35009KT 24/14 A2989 RMK A01 T02350144  RH  057%=      5-min Rain = 0
KHA3 252108Z 35010KT 23/14 A2989 RMK A01 T02340143  RH  057%=      5-min Rain = 0
KHA3 252109Z 36008KT 23/15 A2989 RMK A01 T02330146  RH  058%=      5-min Rain = 0
KHA3 252110Z 35009KT 24/15 A2989 RMK A01 T02360147  RH  058%=      5-min Rain = 0
KHA3 252111Z 00010KT 24/15 A2989 RMK A01 T02360146  RH  057%=      5-min Rain = 0
KHA3 252112Z 01012KT 24/15 A2989 RMK A01 T02350148  RH  058%=      5-min Rain = 0
KHA3 252113Z 01011KT 23/15 A2989 RMK A01 T02320145  RH  058%=      5-min Rain = 0
KHA3 252114Z 01010KT 23/15 A2989 RMK A01 T02310147  RH  059%=      5-min Rain = 0
KHA3 252115Z 01011KT 23/15 A2989 RMK A01 T02300145  RH  059%=      5-min Rain = 0
KHA3 252116Z 01013KT 23/15 A2988 RMK A01 T02300148  RH  060%=      5-min Rain = 0
KHA3 252117Z 01014KT 23/14 A2988 RMK A01 T02300143  RH  058%=      5-min Rain = 0
KHA3 252118Z 36013KT 23/15 A2988 RMK A01 T02290147  RH  060%=      5-min Rain = 0
KHA3 252119Z 35013KT 23/14 A2988 RMK A01 T02290144  RH  059%=      5-min Rain = 0
KHA3 252120Z 36012KT 23/14 A2988 RMK A01 T02270142  RH  059%=      5-min Rain = 0
KHA3 252121Z 34012KT 23/15 A2988 RMK A01 T02260145  RH  060%=      5-min Rain = 0
KHA3 252122Z 36011KT 23/15 A2988 RMK A01 T02290147  RH  060%=      5-min Rain = 0
KHA3 252123Z 03013KT 23/15 A2988 RMK A01 T02310147  RH  059%=      5-min Rain = 0
KHA3 252124Z 02013KT 23/14 A2988 RMK A01 T02320142  RH  057%=      5-min Rain = 0
KHA3 252125Z 02012KT 23/14 A2988 RMK A01 T02330141  RH  057%=      5-min Rain = 0
KHA3 252126Z 02010KT 23/14 A2988 RMK A01 T02330142  RH  056%=      5-min Rain = 0
KHA3 252127Z 02009KT 23/14 A2988 RMK A01 T02320143  RH  057%=      5-min Rain = 0
KHA3 252128Z 01009KT 23/15 A2988 RMK A01 T02330146  RH  058%=      5-min Rain = 0
KHA3 252129Z 01010KT 23/14 A2988 RMK A01 T02330142  RH  056%=      5-min Rain = 0
KHA3 252130Z 01010KT 23/14 A2988 RMK A01 T02310140  RH  057%=      5-min Rain = 0
KHA3 252131Z 00009KT 23/14 A2989 RMK A01 T02300143  RH  058%=      5-min Rain = 0
KHA3 252132Z 00008KT 23/15 A2989 RMK A01 T02290146  RH  060%=      5-min Rain = 0
KHA3 252133Z 35011G16KT 23/15 A2989 RMK A01 T02290146  RH  059%=      5-min Rain = 0
KHA3 252134Z 36012KT 23/15 A2989 RMK A01 T02290145  RH  059%=      5-min Rain = 0
KHA3 252135Z 36010KT 23/15 A2989 RMK A01 T02280148  RH  060%=      5-min Rain = 0
KHA3 252136Z 35009KT 23/14 A2989 RMK A01 T02290143  RH  059%=      5-min Rain = 0
KHA3 252137Z 35009KT 23/15 A2989 RMK A01 T02280146  RH  060%=      5-min Rain = 0
KHA3 252138Z 01009KT 23/15 A2988 RMK A01 T02280146  RH  060%=      5-min Rain = 0
KHA3 252139Z 01009KT 23/15 A2988 RMK A01 T02290145  RH  059%=      5-min Rain = 0
KHA3 252140Z 36012KT 23/15 A2988 RMK A01 T02300145  RH  059%=      5-min Rain = 0
KHA3 252141Z 01010KT 23/14 A2988 RMK A01 T02300141  RH  057%=      5-min Rain = 0
KHA3 252142Z 00009KT 23/14 A2988 RMK A01 T02280140  RH  057%=      5-min Rain = 0
KHA3 252143Z 00009KT 23/14 A2988 RMK A01 T02270141  RH  058%=      5-min Rain = 0
KHA3 252144Z 01008KT 23/14 A2988 RMK A01 T02270141  RH  058%=      5-min Rain = 0
KHA3 252145Z 01008KT 23/15 A2988 RMK A01 T02280145  RH  060%=      5-min Rain = 0
KHA3 252146Z 01009KT 23/15 A2988 RMK A01 T02310148  RH  060%=      5-min Rain = 0
KHA3 252147Z 36008KT 23/15 A2988 RMK A01 T02330147  RH  058%=      5-min Rain = 0
KHA3 252148Z 01009KT 23/15 A2988 RMK A01 T02330145  RH  058%=      5-min Rain = 0
KHA3 252149Z 01012KT 23/15 A2988 RMK A01 T02340146  RH  058%=      5-min Rain = 0
KHA3 252150Z 02012KT 23/15 A2988 RMK A01 T02340148  RH  058%=      5-min Rain = 0
KHA3 252151Z 01012KT 23/15 A2988 RMK A01 T02340148  RH  058%=      5-min Rain = 0
KHA3 252152Z 00011KT 23/15 A2988 RMK A01 T02340146  RH  058%=      5-min Rain = 0
KHA3 252153Z 35010KT 23/14 A2988 RMK A01 T02330142  RH  057%=      5-min Rain = 0
KHA3 252154Z 36011KT 23/14 A2988 RMK A01 T02330143  RH  057%=      5-min Rain = 0
KHA3 252155Z 00010KT 23/14 A2988 RMK A01 T02320144  RH  058%=      5-min Rain = 0
KHA3 252156Z 35011KT 23/15 A2988 RMK A01 T02320146  RH  058%=      5-min Rain = 0
KHA3 252157Z 01008KT 23/14 A2988 RMK A01 T02340144  RH  057%=      5-min Rain = 0
KHA3 252158Z 01009KT 23/14 A2988 RMK A01 T02340144  RH  057%=      5-min Rain = 0
KHA3 252159Z 03010KT 23/14 A2988 RMK A01 T02340140  RH  056%=      5-min Rain = 0
KHA3 252200Z 01013KT 23/14 A2988 RMK A01 T02330141  RH  057%=      5-min Rain = 0
KHA3 252201Z 00008KT 23/14 A2988 RMK A01 T02330143  RH  057%=      5-min Rain = 0
KHA3 252202Z 01008KT 24/15 A2988 RMK A01 T02350148  RH  058%=      5-min Rain = 0
KHA3 252203Z 36009KT 24/15 A2988 RMK A01 T02370145  RH  056%=      5-min Rain = 0
KHA3 252204Z 36009KT 24/15 A2988 RMK A01 T02360145  RH  057%=      5-min Rain = 0
KHA3 252205Z 35008KT 24/15 A2988 RMK A01 T02350145  RH  057%=      5-min Rain = 0
KHA3 252206Z 36009KT 24/15 A2988 RMK A01 T02360147  RH  057%=      5-min Rain = 0
KHA3 252207Z 35011KT 24/15 A2988 RMK A01 T02380146  RH  056%=      5-min Rain = 0
KHA3 252208Z 35008KT 24/15 A2988 RMK A01 T02390148  RH  056%=      5-min Rain = 0
KHA3 252209Z 00009KT 24/15 A2988 RMK A01 T02410150  RH  057%=      5-min Rain = 0
KHA3 252210Z 02011KT 25/15 A2988 RMK A01 T02460153  RH  056%=      5-min Rain = 0
KHA3 252211Z 02012KT 25/15 A2988 RMK A01 T02480148  RH  054%=      5-min Rain = 0
KHA3 252212Z 02012KT 25/15 A2988 RMK A01 T02450147  RH  054%=      5-min Rain = 0
KHA3 252213Z 02014KT 24/14 A2988 RMK A01 T02430144  RH  054%=      5-min Rain = 0
KHA3 252214Z 02012KT 24/14 A2988 RMK A01 T02370141  RH  055%=      5-min Rain = 0
KHA3 252215Z 02010KT 23/14 A2988 RMK A01 T02340142  RH  056%=      5-min Rain = 0
KHA3 252216Z 02009KT 23/15 A2988 RMK A01 T02330145  RH  058%=      5-min Rain = 0
KHA3 252217Z 02010KT 23/14 A2988 RMK A01 T02330142  RH  057%=      5-min Rain = 0
KHA3 252218Z 02009KT 23/14 A2988 RMK A01 T02310143  RH  058%=      5-min Rain = 0
KHA3 252219Z 01010KT 23/15 A2988 RMK A01 T02310145  RH  059%=      5-min Rain = 0
KHA3 252220Z 01011KT 23/14 A2988 RMK A01 T02310144  RH  058%=      5-min Rain = 0
KHA3 252221Z 01010KT 23/15 A2988 RMK A01 T02310145  RH  058%=      5-min Rain = 0
KHA3 252222Z 02011KT 23/14 A2988 RMK A01 T02320144  RH  058%=      5-min Rain = 0
KHA3 252223Z 02011KT 23/14 A2988 RMK A01 T02330143  RH  057%=      5-min Rain = 0
KHA3 252224Z 02011KT 23/15 A2988 RMK A01 T02330147  RH  058%=      5-min Rain = 0
KHA3 252225Z 35010KT 24/15 A2988 RMK A01 T02350149  RH  058%=      5-min Rain = 0
KHA3 252226Z 36011KT 24/15 A2988 RMK A01 T02360152  RH  059%=      5-min Rain = 0
KHA3 252227Z 01015KT 24/15 A2988 RMK A01 T02380151  RH  058%=      5-min Rain = 0
KHA3 252228Z 01014KT 24/15 A2988 RMK A01 T02360147  RH  057%=      5-min Rain = 0
KHA3 252229Z 00014KT 23/15 A2988 RMK A01 T02330146  RH  058%=      5-min Rain = 0
KHA3 252230Z 00015KT 23/15 A2988 RMK A01 T02310145  RH  058%=      5-min Rain = 0
KHA3 252231Z 36014KT 23/15 A2988 RMK A01 T02300146  RH  059%=      5-min Rain = 0
KHA3 252232Z 00012KT 23/15 A2988 RMK A01 T02300148  RH  060%=      5-min Rain = 0
KHA3 252233Z 36014KT 23/15 A2988 RMK A01 T02300151  RH  061%=      5-min Rain = 0
KHA3 252234Z 00009KT 23/15 A2988 RMK A01 T02310147  RH  059%=      5-min Rain = 0
KHA3 252235Z 35013KT 23/15 A2988 RMK A01 T02300150  RH  061%=      5-min Rain = 0
KHA3 252236Z 34014KT 23/15 A2988 RMK A01 T02310147  RH  059%=      5-min Rain = 0
KHA3 252237Z 34014KT 23/15 A2988 RMK A01 T02310147  RH  059%=      5-min Rain = 0
KHA3 252238Z 34013KT 23/15 A2988 RMK A01 T02300150  RH  060%=      5-min Rain = 0
KHA3 252239Z 34012KT 23/15 A2988 RMK A01 T02300149  RH  060%=      5-min Rain = 0
KHA3 252240Z 34012KT 23/15 A2988 RMK A01 T02300149  RH  060%=      5-min Rain = 0
KHA3 252241Z 34013KT 23/15 A2988 RMK A01 T02280147  RH  060%=      5-min Rain = 0
KHA3 252242Z 34016KT 23/15 A2988 RMK A01 T02270149  RH  061%=      5-min Rain = 0
KHA3 252243Z 34017KT 23/15 A2988 RMK A01 T02260148  RH  061%=      5-min Rain = 0
KHA3 252244Z 34016KT 23/15 A2988 RMK A01 T02250147  RH  061%=      5-min Rain = 0
KHA3 252245Z 34015KT 23/15 A2989 RMK A01 T02250146  RH  061%=      5-min Rain = 0
KHA3 252246Z 34013KT 22/15 A2989 RMK A01 T02240148  RH  062%=      5-min Rain = 0
KHA3 252247Z 34014KT 22/15 A2989 RMK A01 T02240148  RH  062%=      5-min Rain = 0
KHA3 252248Z 34015KT 22/15 A2989 RMK A01 T02240146  RH  061%=      5-min Rain = 0
KHA3 252249Z 35014KT 22/15 A2989 RMK A01 T02240146  RH  061%=      5-min Rain = 0
KHA3 252250Z 35013KT 22/15 A2989 RMK A01 T02240146  RH  061%=      5-min Rain = 0
KHA3 252251Z 35011KT 22/15 A2989 RMK A01 T02240146  RH  062%=      5-min Rain = 0
KHA3 252252Z 35009KT 22/15 A2989 RMK A01 T02240148  RH  062%=      5-min Rain = 0
KHA3 252253Z 35008KT 23/15 A2989 RMK A01 T02250150  RH  063%=      5-min Rain = 0
KHA3 252254Z 34011KT 23/15 A2989 RMK A01 T02260149  RH  062%=      5-min Rain = 0
KHA3 252255Z 35010KT 23/15 A2989 RMK A01 T02260148  RH  061%=      5-min Rain = 0
KHA3 252256Z 35010KT 23/15 A2989 RMK A01 T02270150  RH  062%=      5-min Rain = 0
KHA3 252257Z 34013KT 23/15 A2989 RMK A01 T02270150  RH  062%=      5-min Rain = 0
KHA3 252258Z 34013KT 23/15 A2989 RMK A01 T02260149  RH  062%=      5-min Rain = 0
KHA3 252259Z 34013KT 23/15 A2989 RMK A01 T02260149  RH  062%=      5-min Rain = 0
KHA3 252300Z 35012KT 23/15 A2989 RMK A01 T02260151  RH  062%=      5-min Rain = 0
KHA3 252301Z 35011KT 23/15 A2989 RMK A01 T02250150  RH  062%=      5-min Rain = 0
KHA3 252302Z 35012G17KT 23/15 A2989 RMK A01 T02260153  RH  063%=      5-min Rain = 0
KHA3 252303Z 34015KT 23/15 A2989 RMK A01 T02260148  RH  061%=      5-min Rain = 0
KHA3 252304Z 35013KT 23/15 A2989 RMK A01 T02250147  RH  061%=      5-min Rain = 0
KHA3 252305Z 35013KT 23/15 A2989 RMK A01 T02250147  RH  061%=      5-min Rain = 0
KHA3 252306Z 35012KT 23/15 A2989 RMK A01 T02250148  RH  062%=      5-min Rain = 0
KHA3 252307Z 35011KT 23/15 A2989 RMK A01 T02250149  RH  062%=      5-min Rain = 0
KHA3 252308Z 35012KT 23/15 A2989 RMK A01 T02250150  RH  063%=      5-min Rain = 0
KHA3 252309Z 35013KT 23/15 A2989 RMK A01 T02250148  RH  062%=      5-min Rain = 0
KHA3 252310Z 35015KT 23/15 A2989 RMK A01 T02250149  RH  062%=      5-min Rain = 0
KHA3 252311Z 34014KT 22/15 A2989 RMK A01 T02240149  RH  062%=      5-min Rain = 0
KHA3 252312Z 34015KT 22/15 A2989 RMK A01 T02240147  RH  061%=      5-min Rain = 0
KHA3 252313Z 35015KT 22/15 A2989 RMK A01 T02230146  RH  062%=      5-min Rain = 0
KHA3 252314Z 35016KT 22/15 A2989 RMK A01 T02230146  RH  062%=      5-min Rain = 0
KHA3 252315Z 35013KT 22/15 A2989 RMK A01 T02220148  RH  063%=      5-min Rain = 0
KHA3 252316Z 35014KT 22/15 A2989 RMK A01 T02220147  RH  062%=      5-min Rain = 0
KHA3 252317Z 34014KT 22/15 A2989 RMK A01 T02220147  RH  062%=      5-min Rain = 0
KHA3 252318Z 35012KT 22/15 A2989 RMK A01 T02220148  RH  063%=      5-min Rain = 0
KHA3 252319Z 35014KT 22/15 A2989 RMK A01 T02230147  RH  062%=      5-min Rain = 0
KHA3 252320Z 35014KT 22/15 A2989 RMK A01 T02230145  RH  061%=      5-min Rain = 0
KHA3 252321Z 35013KT 22/15 A2989 RMK A01 T02220146  RH  062%=      5-min Rain = 0
KHA3 252322Z 35014KT 22/15 A2989 RMK A01 T02220146  RH  062%=      5-min Rain = 0
KHA3 252323Z 36015KT 22/15 A2989 RMK A01 T02230146  RH  062%=      5-min Rain = 0
KHA3 252324Z 35016KT 22/15 A2989 RMK A01 T02230146  RH  062%=      5-min Rain = 0
KHA3 252325Z 36015KT 22/15 A2989 RMK A01 T02230146  RH  061%=      5-min Rain = 0
KHA3 252326Z 36015KT 22/15 A2989 RMK A01 T02230146  RH  062%=      5-min Rain = 0
KHA3 252327Z 35014KT 22/15 A2989 RMK A01 T02220147  RH  062%=      5-min Rain = 0
KHA3 252328Z 35014KT 22/15 A2989 RMK A01 T02220146  RH  062%=      5-min Rain = 0
KHA3 252329Z 35013KT 22/15 A2989 RMK A01 T02220147  RH  062%=      5-min Rain = 0
KHA3 252330Z 35015KT 22/15 A2989 RMK A01 T02220149  RH  063%=      5-min Rain = 0
KHA3 252331Z 34016KT 22/15 A2989 RMK A01 T02220148  RH  063%=      5-min Rain = 0
KHA3 252332Z 34015KT 22/15 A2989 RMK A01 T02210147  RH  063%=      5-min Rain = 0
KHA3 252333Z 34017KT 22/15 A2989 RMK A01 T02200146  RH  063%=      5-min Rain = 0
KHA3 252334Z 35018KT 22/15 A2989 RMK A01 T02190147  RH  063%=      5-min Rain = 0
KHA3 252335Z 35016KT 22/15 A2989 RMK A01 T02190145  RH  063%=      5-min Rain = 0
KHA3 252336Z 35018KT 22/15 A2989 RMK A01 T02180145  RH  063%=      5-min Rain = 0
KHA3 252337Z 35019KT 22/14 A2989 RMK A01 T02180143  RH  063%=      5-min Rain = 0
KHA3 252338Z 35016KT 22/14 A2989 RMK A01 T02170143  RH  063%=      5-min Rain = 0
KHA3 252339Z 34015KT 22/14 A2989 RMK A01 T02170144  RH  063%=      5-min Rain = 0
KHA3 252340Z 34018KT 22/15 A2989 RMK A01 T02170145  RH  064%=      5-min Rain = 0
KHA3 252341Z 35017KT 22/14 A2989 RMK A01 T02170143  RH  063%=      5-min Rain = 0
KHA3 252342Z 34016KT 22/14 A2989 RMK A01 T02160143  RH  063%=      5-min Rain = 0
KHA3 252343Z 34014KT 22/14 A2989 RMK A01 T02160144  RH  064%=      5-min Rain = 0
KHA3 252344Z 34015KT 22/15 A2989 RMK A01 T02160145  RH  064%=      5-min Rain = 0
KHA3 252345Z 34015KT 22/14 A2989 RMK A01 T02160144  RH  063%=      5-min Rain = 0
KHA3 252346Z 35013KT 22/15 A2989 RMK A01 T02160145  RH  064%=      5-min Rain = 0
KHA3 252347Z 35013KT 22/15 A2989 RMK A01 T02160145  RH  064%=      5-min Rain = 0
KHA3 252348Z 35015KT 22/14 A2989 RMK A01 T02160144  RH  064%=      5-min Rain = 0
KHA3 252349Z 34014KT 22/14 A2989 RMK A01 T02160144  RH  064%=      5-min Rain = 0
KHA3 252350Z 34014KT 22/14 A2989 RMK A01 T02150144  RH  064%=      5-min Rain = 0
KHA3 252351Z 35014KT 22/14 A2989 RMK A01 T02150143  RH  064%=      5-min Rain = 0
KHA3 252352Z 35014KT 22/14 A2989 RMK A01 T02150143  RH  064%=      5-min Rain = 0
KHA3 252353Z 34014KT 21/14 A299 RMK A01 T02140142  RH  064%=      5-min Rain = 0
KHA3 252354Z 35012G17KT 21/14 A299 RMK A01 T02140142  RH  063%=      5-min Rain = 0
KHA3 252355Z 35011G16KT 21/14 A299 RMK A01 T02140144  RH  064%=      5-min Rain = 0
KHA3 252356Z 35011G16KT 21/14 A299 RMK A01 T02130144  RH  065%=      5-min Rain = 0
KHA3 252357Z 35013KT 21/14 A299 RMK A01 T02130142  RH  064%=      5-min Rain = 0
KHA3 252358Z 34014KT 21/14 A299 RMK A01 T02130142  RH  064%=      5-min Rain = 0
KHA3 252359Z 35014KT 21/14 A299 RMK A01 T02130141  RH  064%=      5-min Rain = 0
KHA3 260000Z 35014KT 21/14 A299 RMK A01 T02120142  RH  064%=      5-min Rain = 0
KHA3 260001Z 35012KT 21/14 A299 RMK A01 T02120143  RH  064%=      5-min Rain = 0
KHA3 260002Z 35016KT 21/14 A299 RMK A01 T02120141  RH  064%=      5-min Rain = 0
KHA3 260003Z 35014KT 21/14 A299 RMK A01 T02120140  RH  063%=      5-min Rain = 0
KHA3 260004Z 35015KT 21/14 A299 RMK A01 T02120142  RH  064%=      5-min Rain = 0
KHA3 260005Z 34015KT 21/14 A299 RMK A01 T02110140  RH  064%=      5-min Rain = 0
KHA3 260006Z 34013KT 21/14 A299 RMK A01 T02110141  RH  064%=      5-min Rain = 0
KHA3 260007Z 34014KT 21/14 A299 RMK A01 T02110140  RH  064%=      5-min Rain = 0
KHA3 260008Z 34012KT 21/14 A299 RMK A01 T02110140  RH  064%=      5-min Rain = 0
KHA3 260009Z 34012KT 21/14 A299 RMK A01 T02110140  RH  064%=      5-min Rain = 0
KHA3 260010Z 34011KT 21/14 A299 RMK A01 T02110141  RH  064%=      5-min Rain = 0
KHA3 260011Z 34011KT 21/14 A299 RMK A01 T02110141  RH  064%=      5-min Rain = 0
KHA3 260012Z 34010KT 21/14 A299 RMK A01 T02100142  RH  065%=      5-min Rain = 0
KHA3 260013Z 34011KT 21/14 A2991 RMK A01 T02100141  RH  065%=      5-min Rain = 0
KHA3 260014Z 35010KT 21/14 A2991 RMK A01 T02100141  RH  064%=      5-min Rain = 0
KHA3 260015Z 35012KT 21/14 A2991 RMK A01 T02100142  RH  065%=      5-min Rain = 0
KHA3 260016Z 35012KT 21/14 A2991 RMK A01 T02100140  RH  064%=      5-min Rain = 0
KHA3 260017Z 34012KT 21/14 A2991 RMK A01 T02100139  RH  064%=      5-min Rain = 0
KHA3 260018Z 35011KT 21/14 A2991 RMK A01 T02100140  RH  064%=      5-min Rain = 0
KHA3 260019Z 35012KT 21/14 A2991 RMK A01 T02110141  RH  064%=      5-min Rain = 0
KHA3 260020Z 34012KT 21/14 A2991 RMK A01 T02100140  RH  064%=      5-min Rain = 0
KHA3 260021Z 35012KT 21/14 A2991 RMK A01 T02100140  RH  064%=      5-min Rain = 0
KHA3 260022Z 35012KT 21/14 A2991 RMK A01 T02100139  RH  064%=      5-min Rain = 0
KHA3 260023Z 35012KT 21/14 A2991 RMK A01 T02100140  RH  064%=      5-min Rain = 0
KHA3 260024Z 35012KT 21/14 A2991 RMK A01 T02100140  RH  064%=      5-min Rain = 0
KHA3 260025Z 35013KT 21/14 A2991 RMK A01 T02100139  RH  064%=      5-min Rain = 0
KHA3 260026Z 35011KT 21/14 A2991 RMK A01 T02100139  RH  064%=      5-min Rain = 0
KHA3 260027Z 35012KT 21/14 A2991 RMK A01 T02110139  RH  063%=      5-min Rain = 0
KHA3 260028Z 35013KT 21/14 A2991 RMK A01 T02100139  RH  064%=      5-min Rain = 0
KHA3 260029Z 35011KT 21/14 A2991 RMK A01 T02100139  RH  064%=      5-min Rain = 0
KHA3 260030Z 36013KT 21/14 A2991 RMK A01 T02100139  RH  064%=      5-min Rain = 0
KHA3 260031Z 35013KT 21/14 A2991 RMK A01 T02100138  RH  063%=      5-min Rain = 0
KHA3 260032Z 35013KT 21/14 A2991 RMK A01 T02110138  RH  063%=      5-min Rain = 0
KHA3 260033Z 35011KT 21/14 A2991 RMK A01 T02100138  RH  063%=      5-min Rain = 0
KHA3 260034Z 36011KT 21/14 A2991 RMK A01 T02110140  RH  064%=      5-min Rain = 0
KHA3 260035Z 35013KT 21/14 A2991 RMK A01 T02110139  RH  063%=      5-min Rain = 0
KHA3 260036Z 35013KT 21/14 A2991 RMK A01 T02100138  RH  063%=      5-min Rain = 0
KHA3 260037Z 36011KT 21/14 A2991 RMK A01 T02100138  RH  063%=      5-min Rain = 0
KHA3 260038Z 36012KT 21/14 A2991 RMK A01 T02100139  RH  064%=      5-min Rain = 0
KHA3 260039Z 35013KT 21/14 A2991 RMK A01 T02100138  RH  063%=      5-min Rain = 0
KHA3 260040Z 35011KT 21/14 A2991 RMK A01 T02100139  RH  064%=      5-min Rain = 0
KHA3 260041Z 36010KT 21/14 A2991 RMK A01 T02110141  RH  064%=      5-min Rain = 0
KHA3 260042Z 35010KT 21/14 A2991 RMK A01 T02100142  RH  065%=      5-min Rain = 0
KHA3 260043Z 36011KT 21/14 A2991 RMK A01 T02100141  RH  065%=      5-min Rain = 0
KHA3 260044Z 00014KT 21/14 A2991 RMK A01 T02110141  RH  064%=      5-min Rain = 0
KHA3 260045Z 35012KT 21/14 A2991 RMK A01 T02100139  RH  064%=      5-min Rain = 0
KHA3 260046Z 36012KT 21/14 A2991 RMK A01 T02100140  RH  064%=      5-min Rain = 0
KHA3 260047Z 35010KT 21/14 A2991 RMK A01 T02100142  RH  065%=      5-min Rain = 0
KHA3 260048Z 36012KT 21/14 A2991 RMK A01 T02100142  RH  065%=      5-min Rain = 0
KHA3 260049Z 36013KT 21/14 A2992 RMK A01 T02100141  RH  065%=      5-min Rain = 0
KHA3 260050Z 35013KT 21/14 A2992 RMK A01 T02110140  RH  064%=      5-min Rain = 0
KHA3 260051Z 36013KT 21/14 A2992 RMK A01 T02100140  RH  064%=      5-min Rain = 0
KHA3 260052Z 35011KT 21/14 A2992 RMK A01 T02100140  RH  064%=      5-min Rain = 0
KHA3 260053Z 36012KT 21/14 A2992 RMK A01 T02100140  RH  064%=      5-min Rain = 0
KHA3 260054Z 36014KT 21/14 A2991 RMK A01 T02100138  RH  063%=      5-min Rain = 0
KHA3 260055Z 36013KT 21/14 A2992 RMK A01 T02110139  RH  063%=      5-min Rain = 0
KHA3 260056Z 36011KT 21/14 A2992 RMK A01 T02100139  RH  064%=      5-min Rain = 0
KHA3 260057Z 35012KT 21/14 A2992 RMK A01 T02100139  RH  064%=      5-min Rain = 0
KHA3 260058Z 36013KT 21/14 A2992 RMK A01 T02100139  RH  064%=      5-min Rain = 0
KHA3 260059Z 35014KT 21/14 A2992 RMK A01 T02100139  RH  064%=      5-min Rain = 0
KHA3 260100Z 35013KT 21/14 A2992 RMK A01 T02090137  RH  063%=      5-min Rain = 0
KHA3 260101Z 35012KT 21/14 A2992 RMK A01 T02100139  RH  064%=      5-min Rain = 0
KHA3 260102Z 35013KT 21/14 A2992 RMK A01 T02090139  RH  064%=      5-min Rain = 0
KHA3 260103Z 35014KT 21/14 A2992 RMK A01 T02090138  RH  064%=      5-min Rain = 0
KHA3 260104Z 36013KT 21/14 A2992 RMK A01 T02080137  RH  064%=      5-min Rain = 0
KHA3 260105Z 36012KT 21/14 A2992 RMK A01 T02090138  RH  064%=      5-min Rain = 0
KHA3 260106Z 36011KT 21/14 A2992 RMK A01 T02080140  RH  065%=      5-min Rain = 0
KHA3 260107Z 35011KT 21/14 A2992 RMK A01 T02080139  RH  065%=      5-min Rain = 0
KHA3 260108Z 35013KT 21/14 A2992 RMK A01 T02080138  RH  065%=      5-min Rain = 0
KHA3 260109Z 35012KT 21/14 A2992 RMK A01 T02080137  RH  064%=      5-min Rain = 0
KHA3 260110Z 36011KT 21/14 A2992 RMK A01 T02070137  RH  064%=      5-min Rain = 0
KHA3 260111Z 35012KT 21/14 A2992 RMK A01 T02070138  RH  064%=      5-min Rain = 0
KHA3 260112Z 35012KT 21/14 A2992 RMK A01 T02070136  RH  064%=      5-min Rain = 0
KHA3 260113Z 35012KT 21/14 A2992 RMK A01 T02070137  RH  064%=      5-min Rain = 0
KHA3 260114Z 35010KT 21/14 A2992 RMK A01 T02070137  RH  064%=      5-min Rain = 0
KHA3 260115Z 35011KT 21/14 A2992 RMK A01 T02070138  RH  065%=      5-min Rain = 0
KHA3 260116Z 35011KT 21/14 A2992 RMK A01 T02070137  RH  064%=      5-min Rain = 0
KHA3 260117Z 35010KT 21/14 A2992 RMK A01 T02070139  RH  065%=      5-min Rain = 0
KHA3 260118Z 36010KT 21/14 A2992 RMK A01 T02070139  RH  065%=      5-min Rain = 0
KHA3 260119Z 35010KT 21/14 A2992 RMK A01 T02060138  RH  065%=      5-min Rain = 0
KHA3 260120Z 35011KT 21/14 A2992 RMK A01 T02060138  RH  065%=      5-min Rain = 0
KHA3 260121Z 35010KT 21/14 A2992 RMK A01 T02060139  RH  065%=      5-min Rain = 0
KHA3 260122Z 34010KT 21/14 A2992 RMK A01 T02060138  RH  065%=      5-min Rain = 0
KHA3 260123Z 35009KT 21/14 A2992 RMK A01 T02060139  RH  065%=      5-min Rain = 0
KHA3 260124Z 35010KT 21/14 A2993 RMK A01 T02060139  RH  066%=      5-min Rain = 0
KHA3 260125Z 35010KT 21/14 A2993 RMK A01 T02060139  RH  065%=      5-min Rain = 0
KHA3 260126Z 35010KT 21/14 A2993 RMK A01 T02060139  RH  065%=      5-min Rain = 0
KHA3 260127Z 36010KT 21/14 A2993 RMK A01 T02060139  RH  065%=      5-min Rain = 0
KHA3 260128Z 35009KT 21/14 A2993 RMK A01 T02060140  RH  066%=      5-min Rain = 0
KHA3 260129Z 35008KT 21/14 A2993 RMK A01 T02060140  RH  066%=      5-min Rain = 0
KHA3 260130Z 35009KT 21/14 A2993 RMK A01 T02050141  RH  066%=      5-min Rain = 0
KHA3 260131Z 35008KT 21/14 A2993 RMK A01 T02050140  RH  066%=      5-min Rain = 0
KHA3 260132Z 35009KT 21/14 A2993 RMK A01 T02050141  RH  067%=      5-min Rain = 0
KHA3 260133Z 35010KT 21/14 A2993 RMK A01 T02050142  RH  067%=      5-min Rain = 0
KHA3 260134Z 35010KT 21/14 A2993 RMK A01 T02050140  RH  067%=      5-min Rain = 0
KHA3 260135Z 35010KT 21/14 A2993 RMK A01 T02050141  RH  067%=      5-min Rain = 0
KHA3 260136Z 35010KT 21/14 A2993 RMK A01 T02050140  RH  067%=      5-min Rain = 0
KHA3 260137Z 35009KT 20/14 A2993 RMK A01 T02040141  RH  067%=      5-min Rain = 0
KHA3 260138Z 36009KT 20/14 A2993 RMK A01 T02040142  RH  067%=      5-min Rain = 0
KHA3 260139Z 35009KT 20/14 A2993 RMK A01 T02040141  RH  067%=      5-min Rain = 0
KHA3 260140Z 35009KT 20/14 A2993 RMK A01 T02030140  RH  067%=      5-min Rain = 0
KHA3 260141Z 35009KT 20/14 A2993 RMK A01 T02030140  RH  067%=      5-min Rain = 0
KHA3 260142Z 35009KT 20/14 A2993 RMK A01 T02040141  RH  067%=      5-min Rain = 0
KHA3 260143Z 35009KT 20/14 A2993 RMK A01 T02030141  RH  067%=      5-min Rain = 0
KHA3 260144Z 35009KT 20/14 A2993 RMK A01 T02030141  RH  068%=      5-min Rain = 0
KHA3 260145Z 35011KT 20/14 A2993 RMK A01 T02030141  RH  067%=      5-min Rain = 0
KHA3 260146Z 35010KT 20/14 A2993 RMK A01 T02030140  RH  067%=      5-min Rain = 0
KHA3 260147Z 35011KT 20/14 A2993 RMK A01 T02030140  RH  067%=      5-min Rain = 0
KHA3 260148Z 35009KT 20/14 A2993 RMK A01 T02020139  RH  067%=      5-min Rain = 0
KHA3 260149Z 35009KT 20/14 A2993 RMK A01 T02030139  RH  067%=      5-min Rain = 0
KHA3 260150Z 35010KT 20/14 A2993 RMK A01 T02020139  RH  067%=      5-min Rain = 0
KHA3 260151Z 35011KT 20/14 A2993 RMK A01 T02030138  RH  067%=      5-min Rain = 0
KHA3 260152Z 35013KT 20/14 A2993 RMK A01 T02030138  RH  066%=      5-min Rain = 0
KHA3 260153Z 36010KT 20/14 A2993 RMK A01 T02030138  RH  066%=      5-min Rain = 0
KHA3 260154Z 35009G15KT 20/14 A2993 RMK A01 T02030140  RH  067%=      5-min Rain = 0
KHA3 260155Z 35014KT 20/14 A2993 RMK A01 T02020139  RH  067%=      5-min Rain = 0
KHA3 260156Z 36013KT 20/14 A2993 RMK A01 T02030139  RH  067%=      5-min Rain = 0
KHA3 260157Z 36012KT 20/14 A2993 RMK A01 T02020138  RH  067%=      5-min Rain = 0
KHA3 260158Z 36016KT 20/14 A2994 RMK A01 T02030138  RH  066%=      5-min Rain = 0
KHA3 260159Z 00019KT 20/14 A2993 RMK A01 T02020135  RH  065%=      5-min Rain = 0
KHA3 260200Z 01018KT 20/13 A2993 RMK A01 T02020133  RH  064%=      5-min Rain = 0
KHA3 260201Z 00017KT 20/13 A2994 RMK A01 T02020134  RH  065%=      5-min Rain = 0
KHA3 260202Z 00014KT 20/13 A2994 RMK A01 T02020133  RH  065%=      5-min Rain = 0
KHA3 260203Z 00016KT 20/13 A2994 RMK A01 T02010134  RH  065%=      5-min Rain = 0
KHA3 260204Z 00014KT 20/13 A2994 RMK A01 T02010134  RH  065%=      5-min Rain = 0
KHA3 260205Z 00012KT 20/14 A2994 RMK A01 T02010135  RH  066%=      5-min Rain = 0
KHA3 260206Z 00014KT 20/13 A2994 RMK A01 T02000134  RH  066%=      5-min Rain = 0
KHA3 260207Z 01016KT 20/13 A2994 RMK A01 T02000134  RH  066%=      5-min Rain = 0
KHA3 260208Z 00016KT 20/13 A2994 RMK A01 T02000133  RH  065%=      5-min Rain = 0
KHA3 260209Z 01014KT 20/13 A2994 RMK A01 T02000134  RH  066%=      5-min Rain = 0
KHA3 260210Z 36015KT 20/13 A2994 RMK A01 T02000134  RH  066%=      5-min Rain = 0
KHA3 260211Z 00012KT 20/13 A2994 RMK A01 T02000134  RH  066%=      5-min Rain = 0
KHA3 260212Z 01010KT 20/14 A2994 RMK A01 T01990135  RH  067%=      5-min Rain = 0
KHA3 260213Z 01014KT 20/14 A2994 RMK A01 T01990136  RH  067%=      5-min Rain = 0
KHA3 260214Z 01010KT 20/14 A2994 RMK A01 T01980135  RH  067%=      5-min Rain = 0
KHA3 260215Z 01012KT 20/14 A2994 RMK A01 T01980136  RH  067%=      5-min Rain = 0
KHA3 260216Z 01010KT 20/14 A2994 RMK A01 T01980136  RH  067%=      5-min Rain = 0
KHA3 260217Z 01010KT 20/14 A2994 RMK A01 T01980137  RH  068%=      5-min Rain = 0
KHA3 260218Z 01009KT 20/14 A2994 RMK A01 T01970137  RH  068%=      5-min Rain = 0
KHA3 260219Z 01008KT 20/14 A2994 RMK A01 T01970138  RH  069%=      5-min Rain = 0
KHA3 260220Z 02008KT 20/14 A2994 RMK A01 T01960138  RH  069%=      5-min Rain = 0
KHA3 260221Z 02009KT 20/14 A2994 RMK A01 T01960138  RH  069%=      5-min Rain = 0
KHA3 260222Z 02012KT 20/14 A2995 RMK A01 T01960136  RH  068%=      5-min Rain = 0
KHA3 260223Z 01011KT 20/14 A2995 RMK A01 T01960137  RH  069%=      5-min Rain = 0
KHA3 260224Z 01010KT 20/14 A2995 RMK A01 T01960137  RH  069%=      5-min Rain = 0
KHA3 260225Z 01011KT 20/14 A2995 RMK A01 T01950136  RH  068%=      5-min Rain = 0
KHA3 260226Z 00010KT 20/14 A2995 RMK A01 T01950135  RH  068%=      5-min Rain = 0
KHA3 260227Z 01010KT 20/14 A2995 RMK A01 T01950136  RH  069%=      5-min Rain = 0
KHA3 260228Z 01011KT 19/14 A2995 RMK A01 T01940136  RH  069%=      5-min Rain = 0
KHA3 260229Z 01010KT 19/14 A2995 RMK A01 T01940135  RH  069%=      5-min Rain = 0
KHA3 260230Z 01010KT 19/14 A2995 RMK A01 T01940136  RH  069%=      5-min Rain = 0
KHA3 260231Z 01010KT 19/14 A2995 RMK A01 T01930136  RH  069%=      5-min Rain = 0
KHA3 260232Z 01010KT 19/14 A2995 RMK A01 T01930136  RH  069%=      5-min Rain = 0
KHA3 260233Z 01012KT 19/14 A2995 RMK A01 T01930135  RH  069%=      5-min Rain = 0
KHA3 260234Z 01011KT 19/14 A2995 RMK A01 T01920135  RH  070%=      5-min Rain = 0
KHA3 260235Z 01009KT 19/14 A2995 RMK A01 T01920136  RH  070%=      5-min Rain = 0
KHA3 260236Z 01009KT 19/14 A2995 RMK A01 T01900139  RH  072%=      5-min Rain = 0
KHA3 260237Z 01009KT 19/14 A2995 RMK A01 T01890139  RH  073%=      5-min Rain = 0
KHA3 260238Z 01010KT 19/14 A2994 RMK A01 T01870139  RH  073%=      5-min Rain = 0
KHA3 260239Z 02009KT 19/14 A2995 RMK A01 T01870139  RH  074%=      5-min Rain = 0
KHA3 260240Z 01010KT 19/14 A2995 RMK A01 T01860139  RH  074%=      5-min Rain = 0
KHA3 260241Z 01011KT 19/14 A2995 RMK A01 T01850139  RH  074%=      5-min Rain = 0
KHA3 260242Z 01010KT 19/14 A2995 RMK A01 T01850139  RH  075%=      5-min Rain = 0
KHA3 260243Z 01009KT 18/14 A2995 RMK A01 T01840142  RH  076%=      5-min Rain = 0
KHA3 260244Z 01010KT 18/14 A2995 RMK A01 T01830141  RH  076%=      5-min Rain = 0
KHA3 260245Z 01011KT 18/14 A2995 RMK A01 T01820140  RH  076%=      5-min Rain = 0
KHA3 260246Z 01009KT 18/14 A2995 RMK A01 T01820141  RH  077%=      5-min Rain = 0
KHA3 260247Z 01009KT 18/14 A2995 RMK A01 T01820141  RH  077%=      5-min Rain = 0
KHA3 260248Z 01009KT 18/14 A2995 RMK A01 T01810141  RH  077%=      5-min Rain = 0
KHA3 260249Z 01009KT 18/14 A2995 RMK A01 T01810142  RH  078%=      5-min Rain = 0
KHA3 260250Z 01009KT 18/14 A2995 RMK A01 T01800141  RH  078%=      5-min Rain = 0
KHA3 260251Z 02008KT 18/14 A2995 RMK A01 T01800141  RH  078%=      5-min Rain = 0
KHA3 260252Z 02008KT 18/14 A2995 RMK A01 T01810142  RH  078%=      5-min Rain = 0
KHA3 260253Z 01008KT 18/14 A2995 RMK A01 T01800142  RH  078%=      5-min Rain = 0
KHA3 260254Z 02007KT 18/14 A2995 RMK A01 T01800142  RH  078%=      5-min Rain = 0
KHA3 260255Z 01007KT 18/14 A2995 RMK A01 T01800143  RH  079%=      5-min Rain = 0
KHA3 260256Z 01007KT 18/14 A2995 RMK A01 T01800142  RH  078%=      5-min Rain = 0
KHA3 260257Z 01007KT 18/14 A2995 RMK A01 T01800142  RH  078%=      5-min Rain = 0
KHA3 260258Z 01006KT 18/14 A2995 RMK A01 T01810143  RH  078%=      5-min Rain = 0
KHA3 260259Z 00006KT 18/14 A2995 RMK A01 T01800144  RH  079%=      5-min Rain = 0
KHA3 260300Z 01007KT 18/14 A2995 RMK A01 T01800143  RH  079%=      5-min Rain = 0
KHA3 260301Z 01007KT 18/14 A2995 RMK A01 T01800143  RH  079%=      5-min Rain = 0
KHA3 260302Z 00009KT 18/14 A2995 RMK A01 T01800141  RH  078%=      5-min Rain = 0
KHA3 260303Z 00007KT 18/14 A2995 RMK A01 T01810142  RH  078%=      5-min Rain = 0
KHA3 260304Z 00007KT 18/14 A2995 RMK A01 T01810144  RH  079%=      5-min Rain = 0
KHA3 260305Z 01007KT 18/14 A2995 RMK A01 T01800144  RH  080%=      5-min Rain = 0
KHA3 260306Z 01007KT 18/15 A2995 RMK A01 T01800145  RH  080%=      5-min Rain = 0
KHA3 260307Z 01008KT 18/14 A2995 RMK A01 T01790144  RH  080%=      5-min Rain = 0
KHA3 260308Z 01008KT 18/14 A2995 RMK A01 T01790143  RH  080%=      5-min Rain = 0
KHA3 260309Z 01008KT 18/14 A2995 RMK A01 T01790143  RH  079%=      5-min Rain = 0
KHA3 260310Z 01008KT 18/14 A2995 RMK A01 T01790142  RH  079%=      5-min Rain = 0
KHA3 260311Z 01008KT 18/14 A2995 RMK A01 T01790142  RH  079%=      5-min Rain = 0
KHA3 260312Z 01009KT 18/14 A2995 RMK A01 T01790142  RH  079%=      5-min Rain = 0
KHA3 260313Z 01007KT 18/14 A2995 RMK A01 T01790141  RH  078%=      5-min Rain = 0
KHA3 260314Z 01009KT 18/14 A2995 RMK A01 T01800142  RH  078%=      5-min Rain = 0
KHA3 260315Z 02008KT 18/14 A2995 RMK A01 T01800140  RH  078%=      5-min Rain = 0
KHA3 260316Z 01008KT 18/14 A2995 RMK A01 T01800141  RH  078%=      5-min Rain = 0
KHA3 260317Z 01009KT 18/14 A2995 RMK A01 T01800140  RH  077%=      5-min Rain = 0
KHA3 260318Z 01007KT 18/14 A2995 RMK A01 T01800141  RH  078%=      5-min Rain = 0
KHA3 260319Z 01007KT 18/14 A2995 RMK A01 T01790142  RH  079%=      5-min Rain = 0
KHA3 260320Z 01008KT 18/14 A2995 RMK A01 T01790141  RH  079%=      5-min Rain = 0
KHA3 260321Z 01009KT 18/14 A2995 RMK A01 T01790140  RH  078%=      5-min Rain = 0
KHA3 260322Z 01008KT 18/14 A2996 RMK A01 T01790139  RH  078%=      5-min Rain = 0
KHA3 260323Z 01007KT 18/14 A2996 RMK A01 T01790140  RH  078%=      5-min Rain = 0
KHA3 260324Z 01008KT 18/14 A2996 RMK A01 T01790140  RH  078%=      5-min Rain = 0
KHA3 260325Z 01008KT 18/14 A2996 RMK A01 T01790140  RH  078%=      5-min Rain = 0
KHA3 260326Z 01007KT 18/14 A2996 RMK A01 T01790141  RH  078%=      5-min Rain = 0
KHA3 260327Z 01007KT 18/14 A2996 RMK A01 T01780141  RH  079%=      5-min Rain = 0
KHA3 260328Z 01008KT 18/14 A2996 RMK A01 T01780141  RH  079%=      5-min Rain = 0
KHA3 260329Z 01008KT 18/14 A2996 RMK A01 T01780139  RH  078%=      5-min Rain = 0
KHA3 260330Z 01008KT 18/14 A2996 RMK A01 T01780141  RH  079%=      5-min Rain = 0
KHA3 260331Z 01008KT 18/14 A2996 RMK A01 T01780139  RH  078%=      5-min Rain = 0
KHA3 260332Z 01009KT 18/14 A2996 RMK A01 T01780139  RH  078%=      5-min Rain = 0
KHA3 260333Z 01011KT 18/14 A2996 RMK A01 T01780138  RH  077%=      5-min Rain = 0
KHA3 260334Z 01010KT 18/14 A2996 RMK A01 T01780137  RH  077%=      5-min Rain = 0
KHA3 260335Z 01010KT 18/14 A2996 RMK A01 T01780137  RH  077%=      5-min Rain = 0
KHA3 260336Z 01009KT 18/14 A2996 RMK A01 T01780138  RH  077%=      5-min Rain = 0
KHA3 260337Z 01009KT 18/14 A2996 RMK A01 T01780139  RH  078%=      5-min Rain = 0
KHA3 260338Z 00009KT 18/14 A2996 RMK A01 T01770137  RH  078%=      5-min Rain = 0
KHA3 260339Z 01009KT 18/14 A2996 RMK A01 T01760138  RH  078%=      5-min Rain = 0
KHA3 260340Z 01010KT 18/14 A2996 RMK A01 T01760137  RH  078%=      5-min Rain = 0
KHA3 260341Z 01009KT 18/14 A2996 RMK A01 T01750136  RH  078%=      5-min Rain = 0
KHA3 260342Z 01010KT 18/14 A2996 RMK A01 T01760135  RH  077%=      5-min Rain = 0
KHA3 260343Z 01011KT 18/14 A2996 RMK A01 T01760135  RH  077%=      5-min Rain = 0
KHA3 260344Z 01010KT 18/14 A2996 RMK A01 T01760135  RH  077%=      5-min Rain = 0
KHA3 260345Z 01010KT 18/13 A2996 RMK A01 T01750134  RH  077%=      5-min Rain = 0
KHA3 260346Z 01010KT 18/13 A2996 RMK A01 T01750134  RH  076%=      5-min Rain = 0
KHA3 260347Z 01010KT 18/13 A2996 RMK A01 T01760134  RH  076%=      5-min Rain = 0
KHA3 260348Z 01010KT 18/13 A2996 RMK A01 T01750134  RH  077%=      5-min Rain = 0
KHA3 260349Z 01010KT 18/13 A2996 RMK A01 T01750134  RH  077%=      5-min Rain = 0
KHA3 260350Z 00010KT 18/13 A2996 RMK A01 T01750134  RH  077%=      5-min Rain = 0
KHA3 260351Z 01011KT 18/13 A2996 RMK A01 T01750133  RH  077%=      5-min Rain = 0
KHA3 260352Z 01012KT 17/13 A2996 RMK A01 T01740132  RH  076%=      5-min Rain = 0
KHA3 260353Z 01012KT 17/13 A2996 RMK A01 T01740132  RH  076%=      5-min Rain = 0
KHA3 260354Z 01011G16KT 18/13 A2996 RMK A01 T01750131  RH  076%=      5-min Rain = 0
KHA3 260355Z 01011KT 18/13 A2996 RMK A01 T01750131  RH  075%=      5-min Rain = 0
KHA3 260356Z 01012KT 18/13 A2996 RMK A01 T01750131  RH  075%=      5-min Rain = 0
KHA3 260357Z 01012KT 18/13 A2996 RMK A01 T01750131  RH  075%=      5-min Rain = 0
KHA3 260358Z 01013KT 18/13 A2996 RMK A01 T01750131  RH  075%=      5-min Rain = 0
KHA3 260359Z 00013KT 18/13 A2996 RMK A01 T01750131  RH  075%=      5-min Rain = 0
KHA3 260400Z 01013KT 17/13 A2996 RMK A01 T01740131  RH  076%=      5-min Rain = 0
KHA3 260401Z 01013KT 17/13 A2996 RMK A01 T01740131  RH  076%=      5-min Rain = 0
KHA3 260402Z 00014KT 17/13 A2997 RMK A01 T01740129  RH  075%=      5-min Rain = 0
KHA3 260403Z 00015KT 17/13 A2997 RMK A01 T01740128  RH  074%=      5-min Rain = 0
KHA3 260404Z 36010KT 18/13 A2997 RMK A01 T01750129  RH  075%=      5-min Rain = 0
KHA3 260405Z 36012KT 17/13 A2997 RMK A01 T01740130  RH  075%=      5-min Rain = 0
KHA3 260406Z 00013KT 17/13 A2997 RMK A01 T01740129  RH  075%=      5-min Rain = 0
KHA3 260407Z 36011KT 17/13 A2998 RMK A01 T01730128  RH  075%=      5-min Rain = 0
KHA3 260408Z 35010KT 17/13 A2998 RMK A01 T01740129  RH  075%=      5-min Rain = 0
KHA3 260409Z 35011KT 17/13 A2998 RMK A01 T01730129  RH  075%=      5-min Rain = 0
KHA3 260410Z 35011KT 17/13 A2998 RMK A01 T01730128  RH  075%=      5-min Rain = 0
KHA3 260411Z 35009KT 17/13 A2998 RMK A01 T01740130  RH  075%=      5-min Rain = 0
KHA3 260412Z 35010KT 17/13 A2998 RMK A01 T01730129  RH  075%=      5-min Rain = 0
KHA3 260413Z 35009KT 17/13 A2998 RMK A01 T01730130  RH  076%=      5-min Rain = 0
KHA3 260414Z 35009KT 17/13 A2998 RMK A01 T01730130  RH  076%=      5-min Rain = 0
KHA3 260415Z 34010KT 17/13 A2998 RMK A01 T01720129  RH  076%=      5-min Rain = 0
KHA3 260416Z 35007KT 17/13 A2998 RMK A01 T01720130  RH  076%=      5-min Rain = 0
KHA3 260417Z 34009KT 17/13 A2999 RMK A01 T01720130  RH  076%=      5-min Rain = 0
KHA3 260418Z 34009KT 17/13 A2999 RMK A01 T01720130  RH  076%=      5-min Rain = 0
KHA3 260419Z 34011KT 17/13 A2999 RMK A01 T01720129  RH  076%=      5-min Rain = 0
KHA3 260420Z 34009KT 17/13 A2999 RMK A01 T01720129  RH  076%=      5-min Rain = 0
KHA3 260421Z 34009KT 17/13 A2999 RMK A01 T01720129  RH  076%=      5-min Rain = 0
KHA3 260422Z 34009KT 17/13 A2999 RMK A01 T01720129  RH  076%=      5-min Rain = 0
KHA3 260423Z 34009KT 17/13 A2999 RMK A01 T01710129  RH  076%=      5-min Rain = 0
KHA3 260424Z 34008KT 17/13 A2999 RMK A01 T01710130  RH  077%=      5-min Rain = 0
KHA3 260425Z 34008KT 17/13 A2999 RMK A01 T01700130  RH  077%=      5-min Rain = 0
KHA3 260426Z 35008KT 17/13 A2999 RMK A01 T01690129  RH  077%=      5-min Rain = 0
KHA3 260427Z 35008KT 17/13 A2999 RMK A01 T01690129  RH  077%=      5-min Rain = 0
KHA3 260428Z 35008KT 17/13 A2999 RMK A01 T01690129  RH  077%=      5-min Rain = 0
KHA3 260429Z 35009KT 17/13 A2999 RMK A01 T01690129  RH  077%=      5-min Rain = 0
KHA3 260430Z 35008KT 17/13 A2999 RMK A01 T01690129  RH  077%=      5-min Rain = 0
KHA3 260431Z 35007KT 17/13 A2999 RMK A01 T01680129  RH  078%=      5-min Rain = 0
KHA3 260432Z 35007KT 17/13 A2998 RMK A01 T01680130  RH  078%=      5-min Rain = 0
KHA3 260433Z 35007KT 17/13 A2998 RMK A01 T01680129  RH  078%=      5-min Rain = 0
KHA3 260434Z 35007KT 17/13 A2998 RMK A01 T01680130  RH  078%=      5-min Rain = 0
KHA3 260435Z 35007KT 17/13 A2998 RMK A01 T01680130  RH  078%=      5-min Rain = 0
KHA3 260436Z 35008KT 17/13 A2998 RMK A01 T01680130  RH  078%=      5-min Rain = 0
KHA3 260437Z 35008KT 17/13 A2998 RMK A01 T01680129  RH  078%=      5-min Rain = 0
KHA3 260438Z 35008KT 17/13 A2998 RMK A01 T01680128  RH  077%=      5-min Rain = 0
KHA3 260439Z 35008KT 17/13 A2998 RMK A01 T01680128  RH  077%=      5-min Rain = 0
KHA3 260440Z 35008KT 17/13 A2998 RMK A01 T01690130  RH  078%=      5-min Rain = 0
KHA3 260441Z 35009KT 17/13 A2998 RMK A01 T01680129  RH  078%=      5-min Rain = 0
KHA3 260442Z 35009KT 17/13 A2998 RMK A01 T01680128  RH  077%=      5-min Rain = 0
KHA3 260443Z 35008KT 17/13 A2998 RMK A01 T01680128  RH  077%=      5-min Rain = 0
KHA3 260444Z 35008KT 17/13 A2998 RMK A01 T01680128  RH  077%=      5-min Rain = 0
KHA3 260445Z 35008KT 17/13 A2998 RMK A01 T01690129  RH  077%=      5-min Rain = 0
KHA3 260446Z 35009KT 17/13 A2998 RMK A01 T01680129  RH  078%=      5-min Rain = 0
KHA3 260447Z 35009KT 17/13 A2998 RMK A01 T01680128  RH  077%=      5-min Rain = 0
KHA3 260448Z 35009KT 17/13 A2998 RMK A01 T01680128  RH  077%=      5-min Rain = 0
KHA3 260449Z 35008KT 17/13 A2998 RMK A01 T01680128  RH  077%=      5-min Rain = 0
KHA3 260450Z 35007KT 17/13 A2998 RMK A01 T01680128  RH  077%=      5-min Rain = 0
KHA3 260451Z 34007KT 17/13 A2998 RMK A01 T01680129  RH  078%=      5-min Rain = 0
KHA3 260452Z 34007KT 17/13 A2998 RMK A01 T01680129  RH  078%=      5-min Rain = 0
KHA3 260453Z 34007KT 17/13 A2998 RMK A01 T01680129  RH  078%=      5-min Rain = 0
KHA3 260454Z 34007KT 17/13 A2998 RMK A01 T01680129  RH  078%=      5-min Rain = 0
KHA3 260455Z 34006KT 17/13 A2998 RMK A01 T01680129  RH  078%=      5-min Rain = 0
KHA3 260456Z 34007KT 17/13 A2998 RMK A01 T01680130  RH  078%=      5-min Rain = 0
KHA3 260457Z 34007KT 17/13 A2998 RMK A01 T01670129  RH  078%=      5-min Rain = 0
KHA3 260458Z 34008KT 17/13 A2998 RMK A01 T01680130  RH  078%=      5-min Rain = 0
KHA3 260459Z 35007KT 17/13 A2998 RMK A01 T01680129  RH  078%=      5-min Rain = 0

Page generated in 0.1674 seconds.